SJX32 RCTP-KSEA
Flight info
| Callsign | SJX32 |
|---|---|
| Flight time | N/A |
| Altitude | 35000 |
| Route | ROBIN1A ROBIN R583 BORDO Z29 GAKIA Y293 YULIA Y57 POROT OTR11 LEPKI DCT 37N160E 37N165E 38N170E 41N180E 45N170W 47N160W 47N150W 47N140W 47N130W DCT WIDEN DCT LATAY HAWKZ8 |
| Aircraft | A359/H-SDE2E3GHIJ3J4J5LM1ORWXY/LB1D1 |
Departure
| Time | 2026-05-07 16:41 |
|---|---|
| Airport | Taiwan Taoyuan International Airport (RCTP) |
Arrival
| Time | N/A |
|---|---|
| Airport | Seattle–Tacoma International Airport (KSEA) |
| Time | Latitude | Longitude | Altitude | Speed | Heading |
|---|---|---|---|---|---|
| 2026-05-07 16:38 | 25.06854 | 121.22701 | 118 ft | 0 kts | 319° |
| 2026-05-07 16:39 | 25.06856 | 121.22699 | 118 ft | 0 kts | 317° |
| 2026-05-07 16:39 | 25.06829 | 121.22684 | 118 ft | 16 kts | 141° |
| 2026-05-07 16:39 | 25.06781 | 121.22723 | 118 ft | 9 kts | 183° |
| 2026-05-07 16:40 | 25.06615 | 121.22707 | 118 ft | 40 kts | 220° |
| 2026-05-07 16:40 | 25.06348 | 121.22373 | 118 ft | 63 kts | 226° |
| 2026-05-07 16:40 | 25.06166 | 121.22269 | 118 ft | 25 kts | 148° |
| 2026-05-07 16:40 | 25.06144 | 121.22425 | 118 ft | 26 kts | 53° |
| 2026-05-07 16:41 | 25.06413 | 121.22779 | 118 ft | 90 kts | 50° |
| 2026-05-07 16:41 | 25.06955 | 121.23460 | 119 ft | 144 kts | 49° |
| 2026-05-07 16:41 | 25.07685 | 121.24389 | 367 ft | 166 kts | 50° |
| 2026-05-07 16:41 | 25.08452 | 121.25376 | 784 ft | 177 kts | 51° |
| 2026-05-07 16:42 | 25.09267 | 121.26449 | 1233 ft | 192 kts | 50° |
| 2026-05-07 16:42 | 25.10168 | 121.27628 | 1751 ft | 208 kts | 50° |
| 2026-05-07 16:42 | 25.11124 | 121.28875 | 2297 ft | 223 kts | 50° |
| 2026-05-07 16:42 | 25.12205 | 121.30187 | 2857 ft | 240 kts | 46° |
| 2026-05-07 16:43 | 25.13398 | 121.31551 | 3441 ft | 257 kts | 45° |
| 2026-05-07 16:43 | 25.14654 | 121.32970 | 4182 ft | 266 kts | 45° |
| 2026-05-07 16:43 | 25.15950 | 121.34439 | 5074 ft | 269 kts | 45° |
| 2026-05-07 16:43 | 25.17239 | 121.35909 | 5944 ft | 272 kts | 46° |
| 2026-05-07 16:44 | 25.18548 | 121.37408 | 6788 ft | 276 kts | 46° |
| 2026-05-07 16:44 | 25.19887 | 121.38949 | 7619 ft | 279 kts | 46° |
| 2026-05-07 16:44 | 25.21227 | 121.40493 | 8408 ft | 282 kts | 46° |
| 2026-05-07 16:44 | 25.22581 | 121.42054 | 9163 ft | 285 kts | 46° |
| 2026-05-07 16:45 | 25.23941 | 121.43623 | 9882 ft | 288 kts | 46° |
| 2026-05-07 16:45 | 25.25337 | 121.45234 | 10506 ft | 295 kts | 46° |
| 2026-05-07 16:45 | 25.26800 | 121.46919 | 10867 ft | 310 kts | 46° |
| 2026-05-07 16:45 | 25.28294 | 121.48673 | 11176 ft | 326 kts | 50° |
| 2026-05-07 16:46 | 25.29559 | 121.50828 | 11478 ft | 342 kts | 65° |
| 2026-05-07 16:46 | 25.30308 | 121.53371 | 11769 ft | 356 kts | 80° |
| 2026-05-07 16:46 | 25.30443 | 121.56142 | 12058 ft | 370 kts | 92° |
| 2026-05-07 16:46 | 25.30385 | 121.59049 | 12332 ft | 384 kts | 86° |
| 2026-05-07 16:47 | 25.30729 | 121.61991 | 12709 ft | 394 kts | 79° |
| 2026-05-07 16:47 | 25.31240 | 121.64988 | 13286 ft | 397 kts | 78° |
| 2026-05-07 16:47 | 25.31790 | 121.67971 | 13852 ft | 400 kts | 78° |
| 2026-05-07 16:47 | 25.32359 | 121.70969 | 14377 ft | 403 kts | 78° |
| 2026-05-07 16:48 | 25.32942 | 121.74005 | 14875 ft | 406 kts | 78° |
| 2026-05-07 16:48 | 25.33537 | 121.77083 | 15354 ft | 409 kts | 78° |
| 2026-05-07 16:48 | 25.34133 | 121.80161 | 15819 ft | 412 kts | 78° |
| 2026-05-07 16:48 | 25.34730 | 121.83240 | 16276 ft | 414 kts | 78° |
| 2026-05-07 16:49 | 25.35332 | 121.86348 | 16725 ft | 417 kts | 78° |
| 2026-05-07 16:49 | 25.35942 | 121.89501 | 17169 ft | 420 kts | 78° |
| 2026-05-07 16:49 | 25.36546 | 121.92627 | 17597 ft | 422 kts | 78° |
| 2026-05-07 16:49 | 25.37161 | 121.95812 | 18021 ft | 425 kts | 78° |
| 2026-05-07 16:50 | 25.37777 | 121.99010 | 18435 ft | 427 kts | 78° |
| 2026-05-07 16:50 | 25.38396 | 122.02226 | 18839 ft | 430 kts | 78° |
| 2026-05-07 16:50 | 25.39017 | 122.05462 | 19235 ft | 432 kts | 78° |
| 2026-05-07 16:50 | 25.39646 | 122.08743 | 19626 ft | 435 kts | 78° |
| 2026-05-07 16:51 | 25.40269 | 122.12000 | 20005 ft | 437 kts | 78° |
| 2026-05-07 16:51 | 25.40899 | 122.15288 | 20376 ft | 440 kts | 78° |
| 2026-05-07 16:51 | 25.41561 | 122.18599 | 20742 ft | 442 kts | 76° |
| 2026-05-07 16:51 | 25.42372 | 122.21875 | 21100 ft | 444 kts | 73° |
| 2026-05-07 16:52 | 25.43348 | 122.25114 | 21449 ft | 447 kts | 70° |
| 2026-05-07 16:52 | 25.44393 | 122.28356 | 21797 ft | 449 kts | 70° |
| 2026-05-07 16:52 | 25.45439 | 122.31564 | 22131 ft | 451 kts | 70° |
| 2026-05-07 16:52 | 25.46506 | 122.34841 | 22465 ft | 453 kts | 70° |
| 2026-05-07 16:53 | 25.47576 | 122.38139 | 22792 ft | 455 kts | 70° |
| 2026-05-07 16:53 | 25.48632 | 122.41403 | 23107 ft | 457 kts | 70° |
| 2026-05-07 16:53 | 25.49708 | 122.44737 | 23419 ft | 459 kts | 70° |
| 2026-05-07 16:53 | 25.50785 | 122.48074 | 23722 ft | 462 kts | 70° |
| 2026-05-07 16:54 | 25.51894 | 122.51385 | 24016 ft | 463 kts | 69° |
| 2026-05-07 16:54 | 25.53040 | 122.54715 | 24303 ft | 465 kts | 69° |
| 2026-05-07 16:54 | 25.54194 | 122.58057 | 24583 ft | 467 kts | 69° |
| 2026-05-07 16:54 | 25.55352 | 122.61420 | 24856 ft | 469 kts | 69° |
| 2026-05-07 16:55 | 25.56511 | 122.64798 | 25122 ft | 471 kts | 69° |
| 2026-05-07 16:55 | 25.57670 | 122.68194 | 25381 ft | 473 kts | 69° |
| 2026-05-07 16:55 | 25.58834 | 122.71620 | 25650 ft | 474 kts | 69° |
| 2026-05-07 16:55 | 25.59998 | 122.75049 | 26002 ft | 473 kts | 69° |
| 2026-05-07 16:56 | 25.61144 | 122.78423 | 26362 ft | 472 kts | 69° |
| 2026-05-07 16:56 | 25.62290 | 122.81795 | 26702 ft | 471 kts | 69° |
| 2026-05-07 16:56 | 25.64589 | 122.88570 | 27328 ft | 470 kts | 69° |
| 2026-05-07 16:57 | 25.65726 | 122.91953 | 27628 ft | 470 kts | 70° |
| 2026-05-07 16:57 | 25.66859 | 122.95331 | 27923 ft | 469 kts | 70° |
| 2026-05-07 16:57 | 25.68005 | 122.98750 | 28220 ft | 469 kts | 70° |
| 2026-05-07 16:57 | 25.69132 | 123.02110 | 28505 ft | 468 kts | 69° |
| 2026-05-07 16:58 | 25.70261 | 123.05464 | 28772 ft | 468 kts | 69° |
| 2026-05-07 16:58 | 25.71404 | 123.08864 | 29037 ft | 467 kts | 69° |
| 2026-05-07 16:58 | 25.72535 | 123.12228 | 29294 ft | 467 kts | 69° |
| 2026-05-07 16:58 | 25.73654 | 123.15559 | 29544 ft | 467 kts | 69° |
| 2026-05-07 16:59 | 25.74783 | 123.18928 | 29775 ft | 467 kts | 69° |
| 2026-05-07 16:59 | 25.75914 | 123.22301 | 29917 ft | 469 kts | 69° |
| 2026-05-07 16:59 | 25.77046 | 123.25683 | 30077 ft | 470 kts | 69° |
| 2026-05-07 16:59 | 25.78178 | 123.29065 | 30285 ft | 470 kts | 69° |
| 2026-05-07 17:00 | 25.79308 | 123.32447 | 30514 ft | 469 kts | 69° |
| 2026-05-07 17:00 | 25.80453 | 123.35874 | 30743 ft | 469 kts | 69° |
| 2026-05-07 17:00 | 25.81579 | 123.39249 | 30958 ft | 468 kts | 69° |
| 2026-05-07 17:00 | 25.82697 | 123.42604 | 31162 ft | 468 kts | 69° |
| 2026-05-07 17:01 | 25.83823 | 123.45985 | 31361 ft | 467 kts | 69° |
| 2026-05-07 17:01 | 25.84945 | 123.49355 | 31554 ft | 467 kts | 69° |
| 2026-05-07 17:01 | 25.86062 | 123.52715 | 31742 ft | 466 kts | 69° |
| 2026-05-07 17:01 | 25.87180 | 123.56081 | 31925 ft | 466 kts | 70° |
| 2026-05-07 17:02 | 25.88307 | 123.59478 | 32105 ft | 466 kts | 70° |
| 2026-05-07 17:02 | 25.89423 | 123.62849 | 32278 ft | 465 kts | 70° |
| 2026-05-07 17:02 | 25.90521 | 123.66169 | 32445 ft | 465 kts | 70° |
| 2026-05-07 17:02 | 25.91636 | 123.69555 | 32611 ft | 464 kts | 70° |
| 2026-05-07 17:03 | 25.92734 | 123.72894 | 32770 ft | 464 kts | 70° |
| 2026-05-07 17:03 | 25.93838 | 123.76247 | 32925 ft | 464 kts | 70° |
| 2026-05-07 17:03 | 25.94947 | 123.79611 | 33076 ft | 463 kts | 70° |
| 2026-05-07 17:03 | 25.96051 | 123.82962 | 33209 ft | 463 kts | 70° |
| 2026-05-07 17:04 | 25.97159 | 123.86323 | 33322 ft | 464 kts | 70° |
| 2026-05-07 17:04 | 25.98264 | 123.89677 | 33426 ft | 464 kts | 70° |
| 2026-05-07 17:04 | 25.99372 | 123.93049 | 33528 ft | 465 kts | 70° |
| 2026-05-07 17:04 | 26.00522 | 123.96397 | 33628 ft | 465 kts | 68° |
| 2026-05-07 17:05 | 26.01824 | 123.99687 | 33729 ft | 466 kts | 64° |
| 2026-05-07 17:05 | 26.03288 | 124.02901 | 33825 ft | 466 kts | 61° |
| 2026-05-07 17:05 | 26.06566 | 124.09090 | 33920 ft | 469 kts | 58° |
| 2026-05-07 17:06 | 26.09951 | 124.15282 | 34043 ft | 471 kts | 58° |
| 2026-05-07 17:06 | 26.13349 | 124.21473 | 34219 ft | 471 kts | 58° |
| 2026-05-07 17:07 | 26.16744 | 124.27683 | 34372 ft | 472 kts | 58° |
| 2026-05-07 17:07 | 26.20142 | 124.33940 | 34516 ft | 472 kts | 59° |
| 2026-05-07 17:08 | 26.23531 | 124.40201 | 34659 ft | 473 kts | 59° |
| 2026-05-07 17:08 | 26.26917 | 124.46468 | 34792 ft | 474 kts | 59° |
| 2026-05-07 17:09 | 26.30302 | 124.52745 | 34914 ft | 474 kts | 59° |
| 2026-05-07 17:09 | 26.33695 | 124.59044 | 34983 ft | 476 kts | 59° |
| 2026-05-07 17:10 | 26.37087 | 124.65351 | 34987 ft | 479 kts | 59° |
| 2026-05-07 17:10 | 26.40477 | 124.71690 | 34988 ft | 476 kts | 59° |
| 2026-05-07 17:11 | 26.43862 | 124.78024 | 34988 ft | 476 kts | 59° |
| 2026-05-07 17:11 | 26.47254 | 124.84368 | 34988 ft | 476 kts | 59° |
| 2026-05-07 17:12 | 26.50627 | 124.90678 | 34988 ft | 476 kts | 59° |
| 2026-05-07 17:12 | 26.54006 | 124.97006 | 34988 ft | 476 kts | 59° |
| 2026-05-07 17:13 | 26.57396 | 125.03364 | 34988 ft | 476 kts | 59° |
| 2026-05-07 17:13 | 26.60760 | 125.09680 | 34988 ft | 477 kts | 59° |
| 2026-05-07 17:14 | 26.64150 | 125.16057 | 34988 ft | 477 kts | 59° |
| 2026-05-07 17:14 | 26.67520 | 125.22404 | 34988 ft | 477 kts | 59° |
| 2026-05-07 17:15 | 26.70888 | 125.28754 | 34988 ft | 477 kts | 59° |
| 2026-05-07 17:15 | 26.74252 | 125.35107 | 34988 ft | 477 kts | 59° |
| 2026-05-07 17:16 | 26.77636 | 125.41509 | 34988 ft | 477 kts | 59° |
| 2026-05-07 17:16 | 26.80988 | 125.47858 | 34988 ft | 477 kts | 59° |
| 2026-05-07 17:17 | 26.84352 | 125.54239 | 34988 ft | 478 kts | 59° |
| 2026-05-07 17:17 | 26.87729 | 125.60654 | 34988 ft | 478 kts | 59° |
| 2026-05-07 17:18 | 26.91005 | 125.66890 | 34988 ft | 478 kts | 59° |
| 2026-05-07 17:18 | 26.94336 | 125.73265 | 34988 ft | 478 kts | 59° |
| 2026-05-07 17:19 | 26.97696 | 125.79686 | 34988 ft | 478 kts | 59° |
| 2026-05-07 17:19 | 27.01060 | 125.86111 | 34988 ft | 478 kts | 59° |
| 2026-05-07 17:20 | 27.04400 | 125.92494 | 34988 ft | 478 kts | 59° |
| 2026-05-07 17:20 | 27.07763 | 125.98910 | 34988 ft | 478 kts | 59° |
| 2026-05-07 17:21 | 27.11149 | 126.05363 | 34988 ft | 479 kts | 59° |
| 2026-05-07 17:21 | 27.14516 | 126.11740 | 34988 ft | 479 kts | 59° |
| 2026-05-07 17:22 | 27.17902 | 126.18191 | 34988 ft | 479 kts | 59° |
| 2026-05-07 17:22 | 27.21256 | 126.24609 | 34988 ft | 479 kts | 59° |
| 2026-05-07 17:23 | 27.24607 | 126.31040 | 34988 ft | 479 kts | 59° |
| 2026-05-07 17:23 | 27.27953 | 126.37473 | 34988 ft | 479 kts | 59° |
| 2026-05-07 17:24 | 27.31320 | 126.43957 | 34988 ft | 479 kts | 59° |
| 2026-05-07 17:24 | 27.34654 | 126.50388 | 34988 ft | 479 kts | 59° |
| 2026-05-07 17:25 | 27.38019 | 126.56886 | 34988 ft | 480 kts | 59° |
| 2026-05-07 17:25 | 27.41354 | 126.63339 | 34988 ft | 480 kts | 59° |
| 2026-05-07 17:26 | 27.44688 | 126.69814 | 34988 ft | 480 kts | 60° |
| 2026-05-07 17:26 | 27.48011 | 126.76289 | 34988 ft | 480 kts | 60° |
| 2026-05-07 17:27 | 27.51368 | 126.82822 | 34988 ft | 481 kts | 60° |
| 2026-05-07 17:27 | 27.54694 | 126.89298 | 34988 ft | 481 kts | 60° |
| 2026-05-07 17:28 | 27.58033 | 126.95807 | 34988 ft | 481 kts | 60° |
| 2026-05-07 17:28 | 27.61374 | 127.02327 | 34988 ft | 481 kts | 60° |
| 2026-05-07 17:29 | 27.64706 | 127.08841 | 34988 ft | 481 kts | 60° |
| 2026-05-07 17:29 | 27.68033 | 127.15356 | 34988 ft | 481 kts | 60° |
| 2026-05-07 17:30 | 27.71363 | 127.21887 | 34988 ft | 481 kts | 60° |
| 2026-05-07 17:30 | 27.74690 | 127.28422 | 34988 ft | 482 kts | 60° |
| 2026-05-07 17:31 | 27.78014 | 127.34961 | 34988 ft | 482 kts | 60° |
| 2026-05-07 17:31 | 27.81340 | 127.41517 | 34988 ft | 482 kts | 60° |
| 2026-05-07 17:32 | 27.84558 | 127.48096 | 34988 ft | 482 kts | 61° |
| 2026-05-07 17:32 | 27.87726 | 127.54730 | 34988 ft | 482 kts | 61° |
| 2026-05-07 17:33 | 27.90905 | 127.61388 | 34987 ft | 482 kts | 61° |
| 2026-05-07 17:33 | 27.94101 | 127.68085 | 34988 ft | 483 kts | 62° |
| 2026-05-07 17:34 | 27.97264 | 127.74741 | 34988 ft | 483 kts | 62° |
| 2026-05-07 17:34 | 28.00426 | 127.81389 | 34988 ft | 483 kts | 62° |
| 2026-05-07 17:35 | 28.03607 | 127.88077 | 34988 ft | 483 kts | 62° |
| 2026-05-07 17:35 | 28.06782 | 127.94759 | 34988 ft | 483 kts | 62° |
| 2026-05-07 17:36 | 28.09960 | 128.01457 | 34988 ft | 484 kts | 62° |
| 2026-05-07 17:36 | 28.13155 | 128.08147 | 34988 ft | 484 kts | 61° |
| 2026-05-07 17:37 | 28.16344 | 128.14841 | 34988 ft | 484 kts | 62° |
| 2026-05-07 17:37 | 28.19509 | 128.21523 | 34988 ft | 484 kts | 62° |
| 2026-05-07 17:38 | 28.22678 | 128.28236 | 34988 ft | 484 kts | 62° |
| 2026-05-07 17:38 | 28.25824 | 128.34918 | 34988 ft | 484 kts | 62° |
| 2026-05-07 17:39 | 28.28984 | 128.41643 | 34988 ft | 485 kts | 62° |
| 2026-05-07 17:39 | 28.32150 | 128.48392 | 34988 ft | 485 kts | 62° |
| 2026-05-07 17:40 | 28.35313 | 128.55145 | 34988 ft | 485 kts | 62° |
| 2026-05-07 17:40 | 28.38461 | 128.61877 | 34988 ft | 485 kts | 62° |
| 2026-05-07 17:41 | 28.41609 | 128.68631 | 34988 ft | 485 kts | 62° |
| 2026-05-07 17:41 | 28.44743 | 128.75386 | 34988 ft | 485 kts | 62° |
| 2026-05-07 17:42 | 28.47884 | 128.82153 | 34988 ft | 485 kts | 62° |
| 2026-05-07 17:42 | 28.51030 | 128.88930 | 34988 ft | 485 kts | 62° |
| 2026-05-07 17:43 | 28.54173 | 128.95709 | 34988 ft | 485 kts | 62° |
| 2026-05-07 17:43 | 28.57305 | 129.02475 | 34988 ft | 485 kts | 62° |
| 2026-05-07 17:44 | 28.60439 | 129.09256 | 34988 ft | 485 kts | 62° |
| 2026-05-07 17:44 | 28.63554 | 129.16010 | 34988 ft | 485 kts | 62° |
| 2026-05-07 17:45 | 28.66676 | 129.22784 | 34988 ft | 485 kts | 62° |
| 2026-05-07 17:45 | 28.69797 | 129.29570 | 34988 ft | 485 kts | 62° |
| 2026-05-07 17:46 | 28.72916 | 129.36366 | 34988 ft | 485 kts | 62° |
| 2026-05-07 17:46 | 28.76035 | 129.43172 | 34988 ft | 485 kts | 62° |
| 2026-05-07 17:47 | 28.79142 | 129.49962 | 34988 ft | 485 kts | 62° |
| 2026-05-07 17:47 | 28.82255 | 129.56776 | 34988 ft | 485 kts | 62° |
| 2026-05-07 17:48 | 28.85350 | 129.63564 | 34988 ft | 485 kts | 62° |
| 2026-05-07 17:48 | 28.88451 | 129.70395 | 34988 ft | 485 kts | 63° |
| 2026-05-07 17:49 | 28.91552 | 129.77245 | 34988 ft | 485 kts | 63° |
| 2026-05-07 17:49 | 28.94631 | 129.84044 | 34988 ft | 485 kts | 63° |
| 2026-05-07 17:50 | 28.97729 | 129.90889 | 34988 ft | 485 kts | 63° |
| 2026-05-07 17:50 | 29.00821 | 129.97726 | 34988 ft | 485 kts | 63° |
| 2026-05-07 17:51 | 29.03898 | 130.04547 | 34988 ft | 485 kts | 63° |
| 2026-05-07 17:51 | 29.06969 | 130.11360 | 34988 ft | 485 kts | 63° |
| 2026-05-07 17:52 | 29.10063 | 130.18240 | 34988 ft | 485 kts | 63° |
| 2026-05-07 17:52 | 29.13159 | 130.25076 | 34988 ft | 485 kts | 62° |
| 2026-05-07 17:53 | 29.16231 | 130.31879 | 34988 ft | 485 kts | 63° |
| 2026-05-07 17:53 | 29.19311 | 130.38742 | 34988 ft | 485 kts | 63° |
| 2026-05-07 17:54 | 29.22380 | 130.45605 | 34988 ft | 485 kts | 63° |
| 2026-05-07 17:54 | 29.25438 | 130.52463 | 34988 ft | 485 kts | 63° |
| 2026-05-07 17:55 | 29.28506 | 130.59354 | 34988 ft | 485 kts | 63° |
| 2026-05-07 17:55 | 29.31553 | 130.66214 | 34988 ft | 485 kts | 63° |
| 2026-05-07 17:56 | 29.34596 | 130.73103 | 34988 ft | 485 kts | 63° |
| 2026-05-07 17:56 | 29.37621 | 130.79956 | 34988 ft | 485 kts | 63° |
| 2026-05-07 17:57 | 29.40151 | 130.85686 | 34988 ft | 485 kts | 63° |
| 2026-05-07 17:57 | 29.43712 | 130.93759 | 34988 ft | 485 kts | 63° |
| 2026-05-07 17:58 | 29.46750 | 131.00656 | 34988 ft | 485 kts | 63° |
| 2026-05-07 17:58 | 29.49779 | 131.07547 | 34988 ft | 485 kts | 63° |
| 2026-05-07 17:59 | 29.52811 | 131.14455 | 34988 ft | 485 kts | 63° |
| 2026-05-07 17:59 | 29.55820 | 131.21323 | 34988 ft | 485 kts | 63° |
| 2026-05-07 18:00 | 29.58859 | 131.28271 | 34988 ft | 485 kts | 63° |
| 2026-05-07 18:00 | 29.61874 | 131.35179 | 34988 ft | 485 kts | 63° |
| 2026-05-07 18:01 | 29.64888 | 131.42097 | 34988 ft | 485 kts | 63° |
| 2026-05-07 18:01 | 29.67901 | 131.49023 | 34988 ft | 485 kts | 63° |
| 2026-05-07 18:02 | 29.72394 | 131.59381 | 34988 ft | 485 kts | 63° |
| 2026-05-07 18:03 | 29.75403 | 131.66336 | 34988 ft | 485 kts | 64° |
| 2026-05-07 18:03 | 29.78391 | 131.73280 | 34988 ft | 485 kts | 64° |
| 2026-05-07 18:04 | 29.81482 | 131.80148 | 34988 ft | 485 kts | 60° |
| 2026-05-07 18:04 | 29.85113 | 131.86690 | 34990 ft | 486 kts | 55° |
| 2026-05-07 18:05 | 29.88957 | 131.93045 | 34988 ft | 485 kts | 55° |
| 2026-05-07 18:05 | 29.92808 | 131.99400 | 34988 ft | 486 kts | 55° |
| 2026-05-07 18:06 | 29.96652 | 132.05769 | 34988 ft | 486 kts | 55° |
| 2026-05-07 18:06 | 30.00489 | 132.12146 | 34988 ft | 486 kts | 55° |
| 2026-05-07 18:07 | 30.04334 | 132.18547 | 34988 ft | 486 kts | 55° |
| 2026-05-07 18:07 | 30.08155 | 132.24919 | 34988 ft | 486 kts | 55° |
| 2026-05-07 18:08 | 30.11994 | 132.31316 | 34988 ft | 486 kts | 55° |
| 2026-05-07 18:08 | 30.15845 | 132.37707 | 34988 ft | 486 kts | 55° |
| 2026-05-07 18:09 | 30.19669 | 132.44090 | 34988 ft | 486 kts | 55° |
| 2026-05-07 18:09 | 30.23492 | 132.50499 | 34988 ft | 486 kts | 55° |
| 2026-05-07 18:10 | 30.27315 | 132.56924 | 34988 ft | 486 kts | 55° |
| 2026-05-07 18:10 | 30.31139 | 132.63362 | 34988 ft | 486 kts | 55° |
| 2026-05-07 18:11 | 30.34937 | 132.69786 | 34988 ft | 486 kts | 56° |
| 2026-05-07 18:11 | 30.38739 | 132.76234 | 34988 ft | 486 kts | 56° |
| 2026-05-07 18:12 | 30.42516 | 132.82637 | 34988 ft | 486 kts | 56° |
| 2026-05-07 18:12 | 30.46311 | 132.89072 | 34988 ft | 486 kts | 56° |
| 2026-05-07 18:13 | 30.50125 | 132.95546 | 34988 ft | 486 kts | 56° |
| 2026-05-07 18:13 | 30.53925 | 133.02006 | 34988 ft | 486 kts | 56° |
| 2026-05-07 18:14 | 30.57698 | 133.08432 | 34988 ft | 486 kts | 56° |
| 2026-05-07 18:14 | 30.61509 | 133.14932 | 34988 ft | 486 kts | 56° |
| 2026-05-07 18:15 | 30.65259 | 133.21341 | 34988 ft | 480 kts | 56° |
| 2026-05-07 18:15 | 30.68956 | 133.27670 | 34988 ft | 471 kts | 56° |
| 2026-05-07 18:16 | 30.72627 | 133.33968 | 34988 ft | 471 kts | 56° |
| 2026-05-07 18:16 | 30.76266 | 133.40216 | 34988 ft | 471 kts | 56° |
| 2026-05-07 18:17 | 30.79929 | 133.46516 | 34988 ft | 471 kts | 56° |
| 2026-05-07 18:17 | 30.83588 | 133.52818 | 34988 ft | 471 kts | 56° |
| 2026-05-07 18:18 | 30.87252 | 133.59140 | 34988 ft | 471 kts | 56° |
| 2026-05-07 18:18 | 30.90892 | 133.65431 | 34987 ft | 471 kts | 56° |
| 2026-05-07 18:19 | 30.94537 | 133.71758 | 34988 ft | 471 kts | 56° |
| 2026-05-07 18:19 | 30.98172 | 133.78070 | 34988 ft | 471 kts | 56° |
| 2026-05-07 18:20 | 31.01799 | 133.84367 | 34988 ft | 471 kts | 56° |
| 2026-05-07 18:20 | 31.05445 | 133.90704 | 34988 ft | 471 kts | 56° |
| 2026-05-07 18:21 | 31.09087 | 133.97044 | 34988 ft | 471 kts | 56° |
| 2026-05-07 18:21 | 31.12651 | 134.03229 | 34988 ft | 471 kts | 56° |
| 2026-05-07 18:22 | 31.16284 | 134.09525 | 34988 ft | 471 kts | 56° |
| 2026-05-07 18:22 | 31.19936 | 134.15892 | 34988 ft | 471 kts | 56° |
| 2026-05-07 18:23 | 31.23549 | 134.22215 | 34988 ft | 471 kts | 56° |
| 2026-05-07 18:23 | 31.27176 | 134.28578 | 34988 ft | 471 kts | 56° |
| 2026-05-07 18:24 | 31.30773 | 134.34900 | 34988 ft | 471 kts | 56° |
| 2026-05-07 18:24 | 31.34393 | 134.41272 | 34988 ft | 471 kts | 56° |
| 2026-05-07 18:25 | 31.38007 | 134.47646 | 34988 ft | 471 kts | 56° |
| 2026-05-07 18:25 | 31.41613 | 134.54013 | 34988 ft | 471 kts | 56° |
| 2026-05-07 18:26 | 31.45211 | 134.60381 | 34988 ft | 471 kts | 56° |
| 2026-05-07 18:26 | 31.48829 | 134.66795 | 34988 ft | 471 kts | 57° |
| 2026-05-07 18:27 | 31.52408 | 134.73178 | 34988 ft | 471 kts | 57° |
| 2026-05-07 18:27 | 31.55986 | 134.79555 | 34988 ft | 471 kts | 57° |
| 2026-05-07 18:28 | 31.59592 | 134.85980 | 34988 ft | 471 kts | 57° |
| 2026-05-07 18:28 | 31.63156 | 134.92337 | 34988 ft | 471 kts | 57° |
| 2026-05-07 18:29 | 31.66764 | 134.98785 | 34988 ft | 471 kts | 57° |
| 2026-05-07 18:29 | 31.70361 | 135.05127 | 34988 ft | 471 kts | 54° |
| 2026-05-07 18:30 | 31.74406 | 135.11148 | 34988 ft | 471 kts | 48° |
| 2026-05-07 18:30 | 31.78786 | 135.16875 | 34988 ft | 471 kts | 47° |
| 2026-05-07 18:31 | 31.83178 | 135.22572 | 34988 ft | 471 kts | 47° |
| 2026-05-07 18:31 | 31.87541 | 135.28258 | 34988 ft | 471 kts | 47° |
| 2026-05-07 18:32 | 31.91919 | 135.33975 | 34988 ft | 471 kts | 47° |
| 2026-05-07 18:32 | 31.96263 | 135.39662 | 34988 ft | 471 kts | 48° |
| 2026-05-07 18:33 | 32.00637 | 135.45398 | 34988 ft | 471 kts | 48° |
| 2026-05-07 18:33 | 32.05010 | 135.51141 | 34987 ft | 471 kts | 48° |
| 2026-05-07 18:34 | 32.09367 | 135.56873 | 34987 ft | 471 kts | 48° |
| 2026-05-07 18:34 | 32.13729 | 135.62593 | 34988 ft | 471 kts | 47° |
| 2026-05-07 18:35 | 32.18082 | 135.68318 | 34988 ft | 471 kts | 48° |
| 2026-05-07 18:35 | 32.22429 | 135.74083 | 34988 ft | 471 kts | 48° |
| 2026-05-07 18:36 | 32.26782 | 135.79854 | 34988 ft | 471 kts | 48° |
| 2026-05-07 18:36 | 32.31124 | 135.85614 | 34988 ft | 471 kts | 48° |
| 2026-05-07 18:37 | 32.35435 | 135.91341 | 34988 ft | 471 kts | 48° |
| 2026-05-07 18:37 | 32.39798 | 135.97147 | 34987 ft | 471 kts | 49° |
| 2026-05-07 18:38 | 32.43866 | 136.03177 | 34988 ft | 471 kts | 54° |
| 2026-05-07 18:38 | 32.47475 | 136.09631 | 34988 ft | 471 kts | 57° |
| 2026-05-07 18:39 | 32.50979 | 136.16139 | 34988 ft | 471 kts | 57° |
| 2026-05-07 18:39 | 32.54480 | 136.22644 | 34988 ft | 471 kts | 57° |
| 2026-05-07 18:40 | 32.58005 | 136.29192 | 34988 ft | 471 kts | 57° |
| 2026-05-07 18:40 | 32.61505 | 136.35702 | 34988 ft | 471 kts | 57° |
| 2026-05-07 18:41 | 32.65003 | 136.42218 | 34988 ft | 471 kts | 57° |
| 2026-05-07 18:41 | 32.68517 | 136.48775 | 34988 ft | 471 kts | 57° |
| 2026-05-07 18:42 | 32.72029 | 136.55337 | 34988 ft | 471 kts | 57° |
| 2026-05-07 18:42 | 32.75514 | 136.61864 | 34988 ft | 471 kts | 57° |
| 2026-05-07 18:43 | 32.79002 | 136.68414 | 34988 ft | 471 kts | 58° |
| 2026-05-07 18:43 | 32.82482 | 136.74982 | 34988 ft | 471 kts | 58° |
| 2026-05-07 18:44 | 32.85966 | 136.81552 | 34988 ft | 471 kts | 58° |
| 2026-05-07 18:44 | 32.89453 | 136.88130 | 34988 ft | 471 kts | 58° |
| 2026-05-07 18:45 | 32.92936 | 136.94710 | 34988 ft | 471 kts | 58° |
| 2026-05-07 18:45 | 32.96423 | 137.01308 | 34988 ft | 471 kts | 58° |
| 2026-05-07 18:46 | 32.99888 | 137.07877 | 34988 ft | 471 kts | 58° |
| 2026-05-07 18:46 | 33.03363 | 137.14473 | 34988 ft | 471 kts | 58° |
| 2026-05-07 18:47 | 33.06832 | 137.21071 | 34988 ft | 471 kts | 58° |
| 2026-05-07 18:47 | 33.10293 | 137.27666 | 34988 ft | 471 kts | 58° |
| 2026-05-07 18:48 | 33.13612 | 137.33955 | 34988 ft | 471 kts | 58° |
| 2026-05-07 18:48 | 33.17075 | 137.40558 | 34988 ft | 471 kts | 58° |
| 2026-05-07 18:49 | 33.20532 | 137.47168 | 34988 ft | 471 kts | 58° |
| 2026-05-07 18:49 | 33.24000 | 137.53804 | 34988 ft | 471 kts | 58° |
| 2026-05-07 18:50 | 33.27450 | 137.60429 | 34988 ft | 471 kts | 58° |
| 2026-05-07 18:50 | 33.30893 | 137.67061 | 34988 ft | 471 kts | 58° |
| 2026-05-07 18:51 | 33.34311 | 137.73685 | 34988 ft | 471 kts | 58° |
| 2026-05-07 18:51 | 33.37757 | 137.80359 | 34988 ft | 471 kts | 58° |
| 2026-05-07 18:52 | 33.41187 | 137.87001 | 34988 ft | 471 kts | 58° |
| 2026-05-07 18:52 | 33.44603 | 137.93623 | 34988 ft | 471 kts | 58° |
| 2026-05-07 18:53 | 33.48040 | 138.00293 | 34987 ft | 472 kts | 58° |
| 2026-05-07 18:53 | 33.51488 | 138.07004 | 34988 ft | 474 kts | 58° |
| 2026-05-07 18:54 | 33.54949 | 138.13744 | 34988 ft | 476 kts | 58° |
| 2026-05-07 18:54 | 33.58417 | 138.20505 | 34988 ft | 479 kts | 58° |
| 2026-05-07 18:55 | 33.61910 | 138.27333 | 34988 ft | 483 kts | 58° |
| 2026-05-07 18:55 | 33.65415 | 138.34199 | 34988 ft | 485 kts | 58° |
| 2026-05-07 18:56 | 33.68918 | 138.41080 | 34988 ft | 486 kts | 58° |
| 2026-05-07 18:56 | 33.72417 | 138.47969 | 34988 ft | 486 kts | 58° |
| 2026-05-07 18:57 | 33.75924 | 138.54872 | 34988 ft | 486 kts | 58° |
| 2026-05-07 18:57 | 33.79432 | 138.61787 | 34988 ft | 486 kts | 58° |
| 2026-05-07 18:58 | 33.82922 | 138.68697 | 34988 ft | 486 kts | 59° |
| 2026-05-07 18:58 | 33.86421 | 138.75656 | 34988 ft | 486 kts | 59° |
| 2026-05-07 18:59 | 33.89893 | 138.82561 | 34988 ft | 486 kts | 59° |
| 2026-05-07 18:59 | 33.93399 | 138.89539 | 34988 ft | 486 kts | 59° |
| 2026-05-07 19:00 | 33.96881 | 138.96480 | 34988 ft | 486 kts | 59° |
| 2026-05-07 19:00 | 34.00350 | 139.03406 | 34988 ft | 486 kts | 59° |
| 2026-05-07 19:01 | 34.03829 | 139.10365 | 34988 ft | 485 kts | 59° |
| 2026-05-07 19:01 | 34.07297 | 139.17316 | 34988 ft | 485 kts | 59° |
| 2026-05-07 19:02 | 34.10757 | 139.24263 | 34988 ft | 485 kts | 59° |
| 2026-05-07 19:02 | 34.14269 | 139.31270 | 34988 ft | 485 kts | 58° |
| 2026-05-07 19:03 | 34.17730 | 139.38208 | 34988 ft | 485 kts | 59° |
| 2026-05-07 19:03 | 34.21189 | 139.45181 | 34988 ft | 485 kts | 59° |
| 2026-05-07 19:04 | 34.24646 | 139.52173 | 34988 ft | 485 kts | 59° |
| 2026-05-07 19:04 | 34.28091 | 139.59158 | 34988 ft | 485 kts | 59° |
| 2026-05-07 19:05 | 34.31529 | 139.66144 | 34988 ft | 485 kts | 59° |
| 2026-05-07 19:05 | 34.34951 | 139.73143 | 34988 ft | 485 kts | 59° |
| 2026-05-07 19:06 | 34.38371 | 139.80138 | 34988 ft | 485 kts | 59° |
| 2026-05-07 19:06 | 34.43507 | 139.90649 | 34988 ft | 485 kts | 59° |
| 2026-05-07 19:07 | 34.46936 | 139.97679 | 34988 ft | 485 kts | 59° |
| 2026-05-07 19:07 | 34.50342 | 140.04675 | 34988 ft | 485 kts | 59° |
| 2026-05-07 19:08 | 34.53761 | 140.11713 | 34988 ft | 485 kts | 59° |
| 2026-05-07 19:08 | 34.57173 | 140.18749 | 34988 ft | 485 kts | 59° |
| 2026-05-07 19:09 | 34.60594 | 140.25821 | 34988 ft | 485 kts | 59° |
| 2026-05-07 19:09 | 34.63993 | 140.32863 | 34988 ft | 485 kts | 59° |
| 2026-05-07 19:10 | 34.67390 | 140.39917 | 34988 ft | 485 kts | 59° |
| 2026-05-07 19:10 | 34.70769 | 140.46982 | 34988 ft | 485 kts | 60° |
| 2026-05-07 19:11 | 34.74043 | 140.54071 | 34988 ft | 485 kts | 60° |
| 2026-05-07 19:11 | 34.77319 | 140.61217 | 34988 ft | 485 kts | 60° |
| 2026-05-07 19:12 | 34.80599 | 140.68384 | 34988 ft | 485 kts | 61° |
| 2026-05-07 19:12 | 34.83865 | 140.75546 | 34988 ft | 485 kts | 61° |
| 2026-05-07 19:13 | 34.87125 | 140.82697 | 34988 ft | 485 kts | 61° |
| 2026-05-07 19:13 | 34.90393 | 140.89867 | 34988 ft | 485 kts | 61° |
| 2026-05-07 19:14 | 34.93671 | 140.97069 | 34988 ft | 485 kts | 61° |
| 2026-05-07 19:14 | 34.96932 | 141.04248 | 34988 ft | 485 kts | 61° |
| 2026-05-07 19:15 | 35.00172 | 141.11394 | 34988 ft | 485 kts | 61° |
| 2026-05-07 19:15 | 35.03425 | 141.18587 | 34988 ft | 485 kts | 61° |
| 2026-05-07 19:16 | 35.06673 | 141.25781 | 34988 ft | 485 kts | 61° |
| 2026-05-07 19:16 | 35.09911 | 141.32970 | 34988 ft | 485 kts | 61° |
| 2026-05-07 19:17 | 35.13161 | 141.40144 | 34988 ft | 485 kts | 60° |
| 2026-05-07 19:17 | 35.16414 | 141.47342 | 34988 ft | 485 kts | 61° |
| 2026-05-07 19:18 | 35.19644 | 141.54538 | 34988 ft | 485 kts | 61° |
| 2026-05-07 19:18 | 35.22884 | 141.61786 | 34988 ft | 485 kts | 61° |
| 2026-05-07 19:19 | 35.26086 | 141.68980 | 34988 ft | 485 kts | 62° |
| 2026-05-07 19:19 | 35.29300 | 141.76237 | 34988 ft | 485 kts | 62° |
| 2026-05-07 19:20 | 35.32496 | 141.83450 | 34988 ft | 485 kts | 62° |
| 2026-05-07 19:20 | 35.35707 | 141.90706 | 34988 ft | 485 kts | 62° |
| 2026-05-07 19:21 | 35.38906 | 141.97946 | 34988 ft | 485 kts | 62° |
| 2026-05-07 19:21 | 35.42097 | 142.05185 | 34988 ft | 485 kts | 62° |
| 2026-05-07 19:22 | 35.45280 | 142.12416 | 34988 ft | 485 kts | 62° |
| 2026-05-07 19:22 | 35.48480 | 142.19705 | 34988 ft | 485 kts | 62° |
| 2026-05-07 19:23 | 35.51658 | 142.26956 | 34988 ft | 485 kts | 62° |
| 2026-05-07 19:23 | 35.54841 | 142.34238 | 34988 ft | 485 kts | 62° |
| 2026-05-07 19:24 | 35.58010 | 142.41504 | 34988 ft | 485 kts | 62° |
| 2026-05-07 19:24 | 35.61190 | 142.48810 | 34988 ft | 485 kts | 62° |
| 2026-05-07 19:25 | 35.64351 | 142.56087 | 34988 ft | 485 kts | 62° |
| 2026-05-07 19:25 | 35.67507 | 142.63371 | 34988 ft | 485 kts | 62° |
| 2026-05-07 19:26 | 35.70657 | 142.70673 | 34988 ft | 485 kts | 62° |
| 2026-05-07 19:26 | 35.73793 | 142.77968 | 34988 ft | 485 kts | 62° |
| 2026-05-07 19:27 | 35.76951 | 142.85310 | 34988 ft | 485 kts | 62° |
| 2026-05-07 19:27 | 35.80082 | 142.92601 | 34988 ft | 485 kts | 62° |
| 2026-05-07 19:28 | 35.83232 | 142.99950 | 34988 ft | 485 kts | 62° |
| 2026-05-07 19:28 | 35.86372 | 143.07291 | 34988 ft | 485 kts | 62° |
| 2026-05-07 19:29 | 35.89386 | 143.14664 | 34987 ft | 485 kts | 66° |
| 2026-05-07 19:29 | 35.91819 | 143.22391 | 34987 ft | 485 kts | 72° |
| 2026-05-07 19:30 | 35.93557 | 143.30392 | 34987 ft | 485 kts | 78° |
| 2026-05-07 19:30 | 35.94619 | 143.38609 | 34987 ft | 485 kts | 82° |
| 2026-05-07 19:31 | 35.95449 | 143.46815 | 34988 ft | 485 kts | 83° |
| 2026-05-07 19:31 | 35.96277 | 143.55057 | 34987 ft | 485 kts | 82° |
| 2026-05-07 19:32 | 35.97110 | 143.63316 | 34987 ft | 485 kts | 82° |
| 2026-05-07 19:32 | 35.97942 | 143.71599 | 34988 ft | 485 kts | 83° |
| 2026-05-07 19:33 | 35.98762 | 143.79817 | 34988 ft | 485 kts | 83° |
| 2026-05-07 19:33 | 35.99584 | 143.88091 | 34988 ft | 485 kts | 83° |
| 2026-05-07 19:34 | 36.00396 | 143.96326 | 34988 ft | 485 kts | 83° |
| 2026-05-07 19:34 | 36.01207 | 144.04596 | 34988 ft | 485 kts | 83° |
| 2026-05-07 19:35 | 36.02009 | 144.12834 | 34988 ft | 485 kts | 83° |
| 2026-05-07 19:35 | 36.02808 | 144.21106 | 34988 ft | 485 kts | 83° |
| 2026-05-07 19:36 | 36.03597 | 144.29330 | 34988 ft | 485 kts | 83° |
| 2026-05-07 19:36 | 36.04385 | 144.37608 | 34988 ft | 485 kts | 83° |
| 2026-05-07 19:37 | 36.05167 | 144.45886 | 34987 ft | 486 kts | 83° |
| 2026-05-07 19:37 | 36.05944 | 144.54172 | 34987 ft | 486 kts | 83° |
| 2026-05-07 19:38 | 36.06715 | 144.62444 | 34987 ft | 486 kts | 83° |
| 2026-05-07 19:38 | 36.07476 | 144.70703 | 34988 ft | 486 kts | 84° |
| 2026-05-07 19:39 | 36.08229 | 144.78931 | 34988 ft | 486 kts | 83° |
| 2026-05-07 19:39 | 36.08981 | 144.87212 | 34988 ft | 486 kts | 83° |
| 2026-05-07 19:40 | 36.09729 | 144.95493 | 34988 ft | 486 kts | 83° |
| 2026-05-07 19:40 | 36.10486 | 145.03781 | 34988 ft | 486 kts | 83° |
| 2026-05-07 19:41 | 36.11247 | 145.12053 | 34988 ft | 486 kts | 83° |
| 2026-05-07 19:41 | 36.11985 | 145.20335 | 34988 ft | 486 kts | 84° |
| 2026-05-07 19:42 | 36.12707 | 145.28619 | 34988 ft | 486 kts | 84° |
| 2026-05-07 19:42 | 36.13421 | 145.36909 | 34988 ft | 486 kts | 84° |
| 2026-05-07 19:43 | 36.14232 | 145.45132 | 34987 ft | 486 kts | 80° |
| 2026-05-07 19:43 | 36.15653 | 145.53322 | 34988 ft | 486 kts | 75° |
| 2026-05-07 19:44 | 36.17344 | 145.61366 | 34988 ft | 486 kts | 75° |
| 2026-05-07 19:44 | 36.19038 | 145.69429 | 34988 ft | 486 kts | 76° |
| 2026-05-07 19:45 | 36.20712 | 145.77483 | 34988 ft | 486 kts | 76° |
| 2026-05-07 19:45 | 36.22393 | 145.85608 | 34988 ft | 486 kts | 76° |
| 2026-05-07 19:46 | 36.24057 | 145.93678 | 34988 ft | 486 kts | 76° |
| 2026-05-07 19:46 | 36.25715 | 146.01741 | 34988 ft | 486 kts | 76° |
| 2026-05-07 19:47 | 36.27369 | 146.09821 | 34988 ft | 486 kts | 76° |
| 2026-05-07 19:47 | 36.29028 | 146.17946 | 34988 ft | 486 kts | 76° |
| 2026-05-07 19:48 | 36.30668 | 146.26016 | 34988 ft | 486 kts | 76° |
| 2026-05-07 19:48 | 36.32308 | 146.34114 | 34988 ft | 486 kts | 76° |
| 2026-05-07 19:49 | 36.33939 | 146.42197 | 34988 ft | 486 kts | 76° |
| 2026-05-07 19:49 | 36.35576 | 146.50346 | 34988 ft | 486 kts | 76° |
| 2026-05-07 19:50 | 36.37199 | 146.58452 | 34988 ft | 486 kts | 76° |
| 2026-05-07 19:50 | 36.38814 | 146.66548 | 34988 ft | 486 kts | 76° |
| 2026-05-07 19:51 | 36.40420 | 146.74663 | 34988 ft | 486 kts | 76° |
| 2026-05-07 19:51 | 36.42021 | 146.82771 | 34988 ft | 486 kts | 76° |
| 2026-05-07 19:52 | 36.43630 | 146.90939 | 34988 ft | 485 kts | 76° |
| 2026-05-07 19:52 | 36.45214 | 146.99002 | 34988 ft | 485 kts | 76° |
| 2026-05-07 19:53 | 36.46805 | 147.07136 | 34988 ft | 485 kts | 76° |
| 2026-05-07 19:53 | 36.48390 | 147.15269 | 34988 ft | 485 kts | 76° |
| 2026-05-07 19:54 | 36.49972 | 147.23416 | 34988 ft | 485 kts | 76° |
| 2026-05-07 19:54 | 36.51546 | 147.31555 | 34988 ft | 485 kts | 76° |
| 2026-05-07 19:55 | 36.53113 | 147.39690 | 34988 ft | 485 kts | 76° |
| 2026-05-07 19:55 | 36.54665 | 147.47774 | 34988 ft | 485 kts | 76° |
| 2026-05-07 19:56 | 36.56221 | 147.55920 | 34988 ft | 485 kts | 76° |
| 2026-05-07 19:56 | 36.57781 | 147.64111 | 34988 ft | 485 kts | 76° |
| 2026-05-07 19:57 | 36.59316 | 147.72229 | 34988 ft | 485 kts | 77° |
| 2026-05-07 19:57 | 36.60853 | 147.80394 | 34988 ft | 485 kts | 77° |
| 2026-05-07 19:58 | 36.62389 | 147.88568 | 34988 ft | 485 kts | 77° |
| 2026-05-07 19:58 | 36.63914 | 147.96713 | 34988 ft | 485 kts | 77° |
| 2026-05-07 19:59 | 36.65433 | 148.04855 | 34988 ft | 485 kts | 77° |
| 2026-05-07 19:59 | 36.66951 | 148.13023 | 34988 ft | 485 kts | 77° |
| 2026-05-07 20:00 | 36.68462 | 148.21187 | 34988 ft | 485 kts | 77° |
| 2026-05-07 20:00 | 36.69964 | 148.29336 | 34988 ft | 485 kts | 77° |
| 2026-05-07 20:01 | 36.71474 | 148.37561 | 34988 ft | 485 kts | 77° |
| 2026-05-07 20:01 | 36.72966 | 148.45721 | 34988 ft | 485 kts | 77° |
| 2026-05-07 20:02 | 36.74451 | 148.53879 | 34988 ft | 485 kts | 77° |
| 2026-05-07 20:02 | 36.75933 | 148.62051 | 34988 ft | 485 kts | 77° |
| 2026-05-07 20:03 | 36.77411 | 148.70254 | 34988 ft | 485 kts | 77° |
| 2026-05-07 20:03 | 36.78884 | 148.78471 | 34988 ft | 485 kts | 77° |
| 2026-05-07 20:04 | 36.80351 | 148.86678 | 34988 ft | 485 kts | 77° |
| 2026-05-07 20:04 | 36.81811 | 148.94875 | 34988 ft | 485 kts | 77° |
| 2026-05-07 20:05 | 36.83265 | 149.03065 | 34988 ft | 485 kts | 77° |
| 2026-05-07 20:05 | 36.84714 | 149.11258 | 34988 ft | 485 kts | 77° |
| 2026-05-07 20:06 | 36.86156 | 149.19455 | 34988 ft | 485 kts | 77° |
| 2026-05-07 20:06 | 36.87601 | 149.27693 | 34988 ft | 485 kts | 77° |
| 2026-05-07 20:07 | 36.89028 | 149.35875 | 34988 ft | 485 kts | 77° |
| 2026-05-07 20:07 | 36.90458 | 149.44099 | 34988 ft | 485 kts | 77° |
| 2026-05-07 20:08 | 36.91876 | 149.52300 | 34987 ft | 485 kts | 77° |
| 2026-05-07 20:08 | 36.93299 | 149.60559 | 34987 ft | 485 kts | 77° |
| 2026-05-07 20:09 | 36.94710 | 149.68791 | 34988 ft | 485 kts | 78° |
| 2026-05-07 20:10 | 36.96811 | 149.81137 | 34988 ft | 485 kts | 78° |
| 2026-05-07 20:10 | 36.98199 | 149.89320 | 34988 ft | 485 kts | 78° |
| 2026-05-07 20:11 | 36.99522 | 149.97610 | 34987 ft | 485 kts | 81° |
| 2026-05-07 20:11 | 37.00248 | 150.05962 | 34986 ft | 485 kts | 86° |
| 2026-05-07 20:12 | 37.00597 | 150.14371 | 34988 ft | 485 kts | 87° |
| 2026-05-07 20:12 | 37.00924 | 150.22803 | 34988 ft | 485 kts | 87° |
| 2026-05-07 20:13 | 37.01252 | 150.31213 | 34988 ft | 485 kts | 87° |
| 2026-05-07 20:13 | 37.01577 | 150.39580 | 34987 ft | 485 kts | 87° |
| 2026-05-07 20:14 | 37.01898 | 150.47992 | 34987 ft | 485 kts | 87° |
| 2026-05-07 20:14 | 37.02216 | 150.56424 | 34987 ft | 485 kts | 87° |
| 2026-05-07 20:15 | 37.02527 | 150.64859 | 34987 ft | 485 kts | 87° |
| 2026-05-07 20:15 | 37.02831 | 150.73273 | 34988 ft | 485 kts | 88° |
| 2026-05-07 20:16 | 37.03128 | 150.81668 | 34988 ft | 485 kts | 88° |
| 2026-05-07 20:16 | 37.03421 | 150.90091 | 34988 ft | 485 kts | 88° |
| 2026-05-07 20:17 | 37.03709 | 150.98521 | 34988 ft | 485 kts | 88° |
| 2026-05-07 20:17 | 37.03990 | 151.06943 | 34988 ft | 485 kts | 88° |
| 2026-05-07 20:18 | 37.04265 | 151.15356 | 34988 ft | 485 kts | 88° |
| 2026-05-07 20:18 | 37.04534 | 151.23764 | 34988 ft | 485 kts | 88° |
| 2026-05-07 20:19 | 37.04797 | 151.32172 | 34988 ft | 485 kts | 88° |
| 2026-05-07 20:19 | 37.05054 | 151.40595 | 34987 ft | 485 kts | 88° |
| 2026-05-07 20:20 | 37.05305 | 151.49025 | 34987 ft | 485 kts | 88° |
| 2026-05-07 20:20 | 37.05550 | 151.57443 | 34987 ft | 485 kts | 88° |
| 2026-05-07 20:21 | 37.05790 | 151.65860 | 34987 ft | 485 kts | 88° |
| 2026-05-07 20:21 | 37.06023 | 151.74283 | 34988 ft | 485 kts | 88° |
| 2026-05-07 20:22 | 37.06250 | 151.82733 | 34988 ft | 485 kts | 88° |
| 2026-05-07 20:22 | 37.06472 | 151.91157 | 34988 ft | 485 kts | 88° |
| 2026-05-07 20:23 | 37.06687 | 151.99565 | 34988 ft | 485 kts | 88° |
| 2026-05-07 20:23 | 37.06897 | 152.07993 | 34988 ft | 485 kts | 88° |
| 2026-05-07 20:24 | 37.07100 | 152.16415 | 34988 ft | 485 kts | 88° |
| 2026-05-07 20:24 | 37.07297 | 152.24820 | 34988 ft | 485 kts | 88° |
| 2026-05-07 20:25 | 37.07490 | 152.33290 | 34988 ft | 485 kts | 88° |
| 2026-05-07 20:25 | 37.07676 | 152.41719 | 34987 ft | 485 kts | 88° |
| 2026-05-07 20:26 | 37.07856 | 152.50145 | 34987 ft | 485 kts | 88° |
| 2026-05-07 20:26 | 37.08029 | 152.58543 | 34987 ft | 485 kts | 88° |
| 2026-05-07 20:27 | 37.08196 | 152.66962 | 34987 ft | 485 kts | 89° |
| 2026-05-07 20:27 | 37.08358 | 152.75397 | 34988 ft | 485 kts | 89° |
| 2026-05-07 20:28 | 37.08514 | 152.83817 | 34988 ft | 485 kts | 89° |
| 2026-05-07 20:28 | 37.08664 | 152.92261 | 34988 ft | 485 kts | 89° |
| 2026-05-07 20:29 | 37.08809 | 153.00731 | 34988 ft | 485 kts | 89° |
| 2026-05-07 20:29 | 37.08947 | 153.09154 | 34988 ft | 486 kts | 89° |
| 2026-05-07 20:30 | 37.09079 | 153.17575 | 34988 ft | 486 kts | 89° |
| 2026-05-07 20:30 | 37.09205 | 153.25996 | 34988 ft | 486 kts | 89° |
| 2026-05-07 20:31 | 37.09325 | 153.34456 | 34988 ft | 486 kts | 89° |
| 2026-05-07 20:31 | 37.09439 | 153.42873 | 34987 ft | 486 kts | 89° |
| 2026-05-07 20:32 | 37.09547 | 153.51308 | 34987 ft | 486 kts | 89° |
| 2026-05-07 20:32 | 37.09650 | 153.59749 | 34987 ft | 486 kts | 89° |
| 2026-05-07 20:33 | 37.09746 | 153.68188 | 34988 ft | 486 kts | 89° |
| 2026-05-07 20:33 | 37.09837 | 153.76625 | 34988 ft | 486 kts | 89° |
| 2026-05-07 20:34 | 37.09920 | 153.85008 | 34988 ft | 486 kts | 89° |
| 2026-05-07 20:34 | 37.09999 | 153.93478 | 34988 ft | 486 kts | 89° |
| 2026-05-07 20:35 | 37.10097 | 154.01935 | 34988 ft | 486 kts | 89° |
| 2026-05-07 20:35 | 37.10187 | 154.10344 | 34988 ft | 486 kts | 89° |
| 2026-05-07 20:36 | 37.10258 | 154.18753 | 34988 ft | 486 kts | 89° |
| 2026-05-07 20:36 | 37.10316 | 154.27239 | 34988 ft | 486 kts | 89° |
| 2026-05-07 20:37 | 37.10365 | 154.35671 | 34988 ft | 486 kts | 89° |
| 2026-05-07 20:37 | 37.10408 | 154.44099 | 34988 ft | 486 kts | 89° |
| 2026-05-07 20:38 | 37.10445 | 154.52541 | 34989 ft | 486 kts | 89° |
| 2026-05-07 20:38 | 37.10476 | 154.60977 | 34989 ft | 486 kts | 89° |
| 2026-05-07 20:39 | 37.10500 | 154.69379 | 34988 ft | 486 kts | 90° |
| 2026-05-07 20:39 | 37.10519 | 154.77806 | 34988 ft | 486 kts | 90° |
| 2026-05-07 20:40 | 37.10531 | 154.86249 | 34988 ft | 486 kts | 90° |
| 2026-05-07 20:40 | 37.10538 | 154.94693 | 34988 ft | 486 kts | 90° |
| 2026-05-07 20:41 | 37.10538 | 155.03116 | 34988 ft | 486 kts | 90° |
| 2026-05-07 20:41 | 37.10533 | 155.11551 | 34988 ft | 486 kts | 90° |
| 2026-05-07 20:42 | 37.10522 | 155.20000 | 34988 ft | 486 kts | 90° |
| 2026-05-07 20:42 | 37.10504 | 155.28461 | 34988 ft | 486 kts | 90° |
| 2026-05-07 20:43 | 37.10482 | 155.36893 | 34988 ft | 486 kts | 90° |
| 2026-05-07 20:43 | 37.10452 | 155.45340 | 34988 ft | 486 kts | 90° |
| 2026-05-07 20:44 | 37.10418 | 155.53764 | 34989 ft | 486 kts | 90° |
| 2026-05-07 20:44 | 37.10376 | 155.62177 | 34989 ft | 486 kts | 90° |
| 2026-05-07 20:45 | 37.10329 | 155.70625 | 34988 ft | 486 kts | 90° |
| 2026-05-07 20:45 | 37.10276 | 155.79047 | 34988 ft | 485 kts | 90° |
| 2026-05-07 20:46 | 37.10216 | 155.87521 | 34988 ft | 485 kts | 90° |
| 2026-05-07 20:46 | 37.10152 | 155.95917 | 34988 ft | 485 kts | 90° |
| 2026-05-07 20:47 | 37.10081 | 156.04320 | 34988 ft | 485 kts | 90° |
| 2026-05-07 20:47 | 37.10004 | 156.12808 | 34988 ft | 485 kts | 90° |
| 2026-05-07 20:48 | 37.09921 | 156.21222 | 34988 ft | 485 kts | 90° |
| 2026-05-07 20:48 | 37.09833 | 156.29633 | 34988 ft | 485 kts | 90° |
| 2026-05-07 20:49 | 37.09738 | 156.38049 | 34988 ft | 485 kts | 90° |
| 2026-05-07 20:49 | 37.09637 | 156.46512 | 34988 ft | 485 kts | 90° |
| 2026-05-07 20:50 | 37.09530 | 156.54938 | 34989 ft | 485 kts | 90° |
| 2026-05-07 20:50 | 37.09419 | 156.63309 | 34989 ft | 485 kts | 90° |
| 2026-05-07 20:51 | 37.09300 | 156.71741 | 34988 ft | 485 kts | 91° |
| 2026-05-07 20:51 | 37.09175 | 156.80191 | 34988 ft | 485 kts | 91° |
| 2026-05-07 20:52 | 37.09045 | 156.88583 | 34988 ft | 485 kts | 91° |
| 2026-05-07 20:52 | 37.08908 | 156.97009 | 34988 ft | 485 kts | 91° |
| 2026-05-07 20:53 | 37.08766 | 157.05446 | 34988 ft | 485 kts | 91° |
| 2026-05-07 20:53 | 37.08618 | 157.13860 | 34988 ft | 485 kts | 91° |
| 2026-05-07 20:54 | 37.08463 | 157.22292 | 34988 ft | 485 kts | 91° |
| 2026-05-07 20:54 | 37.08303 | 157.30719 | 34988 ft | 485 kts | 91° |
| 2026-05-07 20:55 | 37.08136 | 157.39166 | 34988 ft | 485 kts | 91° |
| 2026-05-07 20:55 | 37.07964 | 157.47594 | 34989 ft | 485 kts | 91° |
| 2026-05-07 20:56 | 37.07786 | 157.56020 | 34989 ft | 485 kts | 91° |
| 2026-05-07 20:56 | 37.07601 | 157.64455 | 34989 ft | 485 kts | 91° |
| 2026-05-07 20:57 | 37.07413 | 157.72827 | 34988 ft | 485 kts | 92° |
| 2026-05-07 20:57 | 37.07216 | 157.81293 | 34988 ft | 485 kts | 92° |
| 2026-05-07 20:58 | 37.07014 | 157.89705 | 34988 ft | 485 kts | 92° |
| 2026-05-07 20:58 | 37.06806 | 157.98137 | 34988 ft | 485 kts | 92° |
| 2026-05-07 20:59 | 37.06592 | 158.06566 | 34988 ft | 485 kts | 92° |
| 2026-05-07 20:59 | 37.06372 | 158.14980 | 34988 ft | 485 kts | 92° |
| 2026-05-07 21:00 | 37.06146 | 158.23396 | 34988 ft | 485 kts | 92° |
| 2026-05-07 21:00 | 37.05916 | 158.31776 | 34988 ft | 485 kts | 92° |
| 2026-05-07 21:01 | 37.05677 | 158.40216 | 34988 ft | 485 kts | 92° |
| 2026-05-07 21:01 | 37.05433 | 158.48648 | 34989 ft | 485 kts | 92° |
| 2026-05-07 21:02 | 37.05184 | 158.57047 | 34989 ft | 485 kts | 92° |
| 2026-05-07 21:02 | 37.04928 | 158.65486 | 34989 ft | 485 kts | 92° |
| 2026-05-07 21:03 | 37.04666 | 158.73909 | 34988 ft | 485 kts | 92° |
| 2026-05-07 21:03 | 37.04399 | 158.82318 | 34988 ft | 485 kts | 92° |
| 2026-05-07 21:04 | 37.04126 | 158.90735 | 34988 ft | 485 kts | 92° |
| 2026-05-07 21:04 | 37.03847 | 158.99130 | 34988 ft | 485 kts | 92° |
| 2026-05-07 21:05 | 37.03561 | 159.07556 | 34988 ft | 485 kts | 92° |
| 2026-05-07 21:05 | 37.03270 | 159.15950 | 34988 ft | 485 kts | 92° |
| 2026-05-07 21:06 | 37.02972 | 159.24382 | 34988 ft | 485 kts | 92° |
| 2026-05-07 21:06 | 37.02667 | 159.32829 | 34988 ft | 485 kts | 92° |
| 2026-05-07 21:07 | 37.02359 | 159.41219 | 34989 ft | 485 kts | 92° |
| 2026-05-07 21:07 | 37.02043 | 159.49618 | 34989 ft | 485 kts | 92° |
| 2026-05-07 21:08 | 37.01721 | 159.58050 | 34989 ft | 485 kts | 92° |
| 2026-05-07 21:08 | 37.01394 | 159.66432 | 34989 ft | 485 kts | 93° |
| 2026-05-07 21:09 | 37.01059 | 159.74854 | 34988 ft | 485 kts | 93° |
| 2026-05-07 21:09 | 37.00717 | 159.83267 | 34988 ft | 485 kts | 93° |
| 2026-05-07 21:10 | 37.00367 | 159.91704 | 34988 ft | 485 kts | 93° |
| 2026-05-07 21:10 | 37.00074 | 160.00117 | 34987 ft | 485 kts | 90° |
| 2026-05-07 21:11 | 37.00195 | 160.08489 | 34988 ft | 485 kts | 88° |
| 2026-05-07 21:11 | 37.00465 | 160.21109 | 34988 ft | 485 kts | 88° |
| 2026-05-07 21:12 | 37.00631 | 160.29579 | 34988 ft | 485 kts | 88° |
| 2026-05-07 21:12 | 37.00785 | 160.37985 | 34988 ft | 485 kts | 88° |
| 2026-05-07 21:13 | 37.00932 | 160.46384 | 34989 ft | 485 kts | 88° |
| 2026-05-07 21:13 | 37.01073 | 160.54813 | 34989 ft | 485 kts | 88° |
| 2026-05-07 21:14 | 37.01208 | 160.63242 | 34989 ft | 485 kts | 88° |
| 2026-05-07 21:14 | 37.01337 | 160.71652 | 34988 ft | 485 kts | 89° |
| 2026-05-07 21:15 | 37.01458 | 160.80057 | 34988 ft | 485 kts | 89° |
| 2026-05-07 21:15 | 37.01575 | 160.88470 | 34988 ft | 485 kts | 89° |
| 2026-05-07 21:16 | 37.01686 | 160.96896 | 34988 ft | 485 kts | 89° |
| 2026-05-07 21:16 | 37.01791 | 161.05321 | 34988 ft | 485 kts | 89° |
| 2026-05-07 21:17 | 37.01891 | 161.13734 | 34988 ft | 485 kts | 89° |
| 2026-05-07 21:17 | 37.01984 | 161.22166 | 34988 ft | 485 kts | 89° |
| 2026-05-07 21:18 | 37.02071 | 161.30592 | 34988 ft | 485 kts | 89° |
| 2026-05-07 21:18 | 37.02153 | 161.39041 | 34988 ft | 485 kts | 89° |
| 2026-05-07 21:19 | 37.02229 | 161.47475 | 34989 ft | 485 kts | 89° |
| 2026-05-07 21:19 | 37.02298 | 161.55852 | 34989 ft | 485 kts | 89° |
| 2026-05-07 21:20 | 37.02362 | 161.64291 | 34989 ft | 485 kts | 89° |
| 2026-05-07 21:20 | 37.02419 | 161.72687 | 34988 ft | 485 kts | 90° |
| 2026-05-07 21:21 | 37.02470 | 161.81137 | 34988 ft | 485 kts | 90° |
| 2026-05-07 21:21 | 37.02515 | 161.89589 | 34988 ft | 485 kts | 90° |
| 2026-05-07 21:22 | 37.02555 | 161.98019 | 34988 ft | 485 kts | 90° |
| 2026-05-07 21:22 | 37.02589 | 162.06450 | 34988 ft | 485 kts | 90° |
| 2026-05-07 21:23 | 37.02616 | 162.14861 | 34988 ft | 485 kts | 90° |
| 2026-05-07 21:23 | 37.02638 | 162.23277 | 34988 ft | 485 kts | 90° |
| 2026-05-07 21:24 | 37.02654 | 162.31692 | 34988 ft | 485 kts | 90° |
| 2026-05-07 21:24 | 37.02664 | 162.40143 | 34988 ft | 485 kts | 90° |
| 2026-05-07 21:25 | 37.02668 | 162.48552 | 34989 ft | 485 kts | 90° |
| 2026-05-07 21:25 | 37.02666 | 162.56966 | 34989 ft | 485 kts | 90° |
| 2026-05-07 21:26 | 37.02658 | 162.65416 | 34989 ft | 485 kts | 90° |
| 2026-05-07 21:26 | 37.02644 | 162.73789 | 34988 ft | 485 kts | 90° |
| 2026-05-07 21:27 | 37.02623 | 162.82254 | 34988 ft | 485 kts | 90° |
| 2026-05-07 21:27 | 37.02597 | 162.90652 | 34988 ft | 485 kts | 90° |
| 2026-05-07 21:28 | 37.02566 | 162.99080 | 34988 ft | 486 kts | 90° |
| 2026-05-07 21:28 | 37.02528 | 163.07506 | 34988 ft | 486 kts | 90° |
| 2026-05-07 21:29 | 37.02484 | 163.15936 | 34988 ft | 486 kts | 90° |
| 2026-05-07 21:29 | 37.02435 | 163.24356 | 34988 ft | 486 kts | 90° |
| 2026-05-07 21:30 | 37.02379 | 163.32825 | 34988 ft | 486 kts | 90° |
| 2026-05-07 21:30 | 37.02317 | 163.41237 | 34989 ft | 486 kts | 90° |
| 2026-05-07 21:31 | 37.02250 | 163.49641 | 34989 ft | 486 kts | 90° |
| 2026-05-07 21:31 | 37.02176 | 163.58054 | 34989 ft | 486 kts | 90° |
| 2026-05-07 21:32 | 37.02097 | 163.66475 | 34989 ft | 486 kts | 91° |
| 2026-05-07 21:32 | 37.02011 | 163.74944 | 34988 ft | 486 kts | 91° |
| 2026-05-07 21:33 | 37.01919 | 163.83342 | 34988 ft | 486 kts | 91° |
| 2026-05-07 21:33 | 37.01821 | 163.91800 | 34988 ft | 486 kts | 91° |
| 2026-05-07 21:34 | 37.01718 | 164.00186 | 34988 ft | 486 kts | 91° |
| 2026-05-07 21:34 | 37.01608 | 164.08623 | 34988 ft | 486 kts | 91° |
| 2026-05-07 21:35 | 37.01493 | 164.17055 | 34988 ft | 486 kts | 91° |
| 2026-05-07 21:35 | 37.01371 | 164.25476 | 34988 ft | 486 kts | 91° |
| 2026-05-07 21:36 | 37.01244 | 164.33885 | 34988 ft | 486 kts | 91° |
| 2026-05-07 21:36 | 37.01109 | 164.42352 | 34989 ft | 486 kts | 91° |
| 2026-05-07 21:37 | 37.00969 | 164.50752 | 34989 ft | 486 kts | 91° |
| 2026-05-07 21:37 | 37.00822 | 164.59175 | 34989 ft | 486 kts | 91° |
| 2026-05-07 21:38 | 37.00669 | 164.67604 | 34988 ft | 486 kts | 91° |
| 2026-05-07 21:38 | 37.00508 | 164.76006 | 34988 ft | 486 kts | 91° |
| 2026-05-07 21:39 | 37.00339 | 164.84465 | 34988 ft | 486 kts | 91° |
| 2026-05-07 21:39 | 37.00296 | 164.92847 | 34987 ft | 486 kts | 88° |
| 2026-05-07 21:40 | 37.00886 | 165.01286 | 34987 ft | 486 kts | 82° |
| 2026-05-07 21:40 | 37.02168 | 165.09543 | 34987 ft | 486 kts | 76° |
| 2026-05-07 21:41 | 37.03945 | 165.17667 | 34988 ft | 486 kts | 74° |
| 2026-05-07 21:41 | 37.05762 | 165.25781 | 34988 ft | 486 kts | 74° |
| 2026-05-07 21:42 | 37.07561 | 165.33878 | 34988 ft | 486 kts | 74° |
| 2026-05-07 21:42 | 37.09362 | 165.42040 | 34988 ft | 486 kts | 74° |
| 2026-05-07 21:43 | 37.11145 | 165.50156 | 34989 ft | 486 kts | 74° |
| 2026-05-07 21:43 | 37.12931 | 165.58321 | 34989 ft | 486 kts | 74° |
| 2026-05-07 21:44 | 37.14701 | 165.66444 | 34988 ft | 486 kts | 75° |
| 2026-05-07 21:44 | 37.16465 | 165.74599 | 34988 ft | 486 kts | 75° |
| 2026-05-07 21:45 | 37.18227 | 165.82764 | 34988 ft | 486 kts | 75° |
| 2026-05-07 21:45 | 37.19973 | 165.90874 | 34988 ft | 485 kts | 75° |
| 2026-05-07 21:46 | 37.21730 | 165.99054 | 34988 ft | 485 kts | 75° |
| 2026-05-07 21:46 | 37.23480 | 166.07234 | 34988 ft | 485 kts | 75° |
| 2026-05-07 21:47 | 37.25212 | 166.15358 | 34988 ft | 485 kts | 75° |
| 2026-05-07 21:47 | 37.26942 | 166.23500 | 34988 ft | 485 kts | 75° |
| 2026-05-07 21:48 | 37.28674 | 166.31683 | 34988 ft | 485 kts | 75° |
| 2026-05-07 21:48 | 37.30405 | 166.39896 | 34988 ft | 485 kts | 75° |
| 2026-05-07 21:49 | 37.32118 | 166.48047 | 34988 ft | 485 kts | 75° |
| 2026-05-07 21:49 | 37.33826 | 166.56206 | 34988 ft | 485 kts | 75° |
| 2026-05-07 21:50 | 37.35537 | 166.64414 | 34988 ft | 485 kts | 75° |
| 2026-05-07 21:50 | 37.37230 | 166.72584 | 34988 ft | 485 kts | 75° |
| 2026-05-07 21:51 | 37.38917 | 166.80765 | 34988 ft | 485 kts | 75° |
| 2026-05-07 21:51 | 37.40616 | 166.89017 | 34988 ft | 485 kts | 75° |
| 2026-05-07 21:52 | 37.42299 | 166.97217 | 34988 ft | 485 kts | 75° |
| 2026-05-07 21:52 | 37.43975 | 167.05406 | 34988 ft | 485 kts | 75° |
| 2026-05-07 21:53 | 37.45648 | 167.13615 | 34988 ft | 485 kts | 75° |
| 2026-05-07 21:53 | 37.47315 | 167.21826 | 34988 ft | 485 kts | 75° |
| 2026-05-07 21:54 | 37.48974 | 167.30031 | 34988 ft | 485 kts | 75° |
| 2026-05-07 21:54 | 37.50627 | 167.38235 | 34988 ft | 485 kts | 75° |
| 2026-05-07 21:55 | 37.52276 | 167.46451 | 34988 ft | 485 kts | 75° |
| 2026-05-07 21:55 | 37.53921 | 167.54681 | 34988 ft | 485 kts | 75° |
| 2026-05-07 21:56 | 37.55559 | 167.62904 | 34988 ft | 485 kts | 75° |
| 2026-05-07 21:56 | 37.57186 | 167.71124 | 34988 ft | 485 kts | 76° |
| 2026-05-07 21:57 | 37.58812 | 167.79384 | 34988 ft | 485 kts | 76° |
| 2026-05-07 21:57 | 37.60428 | 167.87610 | 34988 ft | 485 kts | 76° |
| 2026-05-07 21:58 | 37.62043 | 167.95854 | 34988 ft | 485 kts | 76° |
| 2026-05-07 21:58 | 37.63650 | 168.04086 | 34988 ft | 485 kts | 76° |
| 2026-05-07 21:59 | 37.65263 | 168.12384 | 34988 ft | 485 kts | 76° |
| 2026-05-07 21:59 | 37.66860 | 168.20627 | 34988 ft | 485 kts | 76° |
| 2026-05-07 22:00 | 37.68451 | 168.28874 | 34988 ft | 485 kts | 76° |
| 2026-05-07 22:00 | 37.70036 | 168.37126 | 34988 ft | 486 kts | 76° |
| 2026-05-07 22:01 | 37.71612 | 168.45367 | 34988 ft | 486 kts | 76° |
| 2026-05-07 22:01 | 37.73196 | 168.53682 | 34988 ft | 486 kts | 76° |
| 2026-05-07 22:02 | 37.74763 | 168.61937 | 34988 ft | 486 kts | 76° |
| 2026-05-07 22:02 | 37.76326 | 168.70224 | 34988 ft | 486 kts | 77° |
| 2026-05-07 22:03 | 37.77881 | 168.78513 | 34988 ft | 486 kts | 77° |
| 2026-05-07 22:03 | 37.79423 | 168.86752 | 34988 ft | 486 kts | 77° |
| 2026-05-07 22:04 | 37.80971 | 168.95050 | 34988 ft | 486 kts | 77° |
| 2026-05-07 22:04 | 37.82518 | 169.03377 | 34988 ft | 486 kts | 77° |
| 2026-05-07 22:05 | 37.84048 | 169.11639 | 34988 ft | 486 kts | 77° |
| 2026-05-07 22:05 | 37.85583 | 169.19969 | 34988 ft | 486 kts | 77° |
| 2026-05-07 22:06 | 37.87103 | 169.28250 | 34988 ft | 486 kts | 77° |
| 2026-05-07 22:06 | 37.88616 | 169.36528 | 34988 ft | 486 kts | 77° |
| 2026-05-07 22:07 | 37.90128 | 169.44836 | 34987 ft | 486 kts | 77° |
| 2026-05-07 22:07 | 37.91637 | 169.53163 | 34987 ft | 486 kts | 77° |
| 2026-05-07 22:08 | 37.93134 | 169.61462 | 34987 ft | 486 kts | 77° |
| 2026-05-07 22:08 | 37.94628 | 169.69791 | 34988 ft | 486 kts | 77° |
| 2026-05-07 22:09 | 37.96114 | 169.78114 | 34988 ft | 486 kts | 77° |
| 2026-05-07 22:09 | 37.97599 | 169.86455 | 34988 ft | 486 kts | 77° |
| 2026-05-07 22:10 | 37.99120 | 169.94772 | 34988 ft | 486 kts | 75° |
| 2026-05-07 22:10 | 38.01148 | 170.02890 | 34989 ft | 486 kts | 69° |
| 2026-05-07 22:11 | 38.03788 | 170.10762 | 34988 ft | 486 kts | 65° |
| 2026-05-07 22:11 | 38.06575 | 170.18562 | 34988 ft | 486 kts | 65° |
| 2026-05-07 22:12 | 38.09340 | 170.26326 | 34988 ft | 486 kts | 65° |
| 2026-05-07 22:12 | 38.12111 | 170.34097 | 34988 ft | 486 kts | 65° |
| 2026-05-07 22:13 | 38.14904 | 170.41933 | 34988 ft | 486 kts | 65° |
| 2026-05-07 22:13 | 38.17659 | 170.49730 | 34988 ft | 486 kts | 65° |
| 2026-05-07 22:14 | 38.20392 | 170.57510 | 34988 ft | 486 kts | 65° |
| 2026-05-07 22:14 | 38.23142 | 170.65367 | 34988 ft | 486 kts | 66° |
| 2026-05-07 22:15 | 38.25870 | 170.73213 | 34988 ft | 485 kts | 66° |
| 2026-05-07 22:15 | 38.28584 | 170.81036 | 34988 ft | 485 kts | 66° |
| 2026-05-07 22:16 | 38.31300 | 170.88873 | 34988 ft | 485 kts | 66° |
| 2026-05-07 22:16 | 38.34009 | 170.96701 | 34988 ft | 485 kts | 66° |
| 2026-05-07 22:17 | 38.36714 | 171.04540 | 34988 ft | 485 kts | 66° |
| 2026-05-07 22:17 | 38.39434 | 171.12440 | 34988 ft | 485 kts | 66° |
| 2026-05-07 22:18 | 38.43477 | 171.24225 | 34988 ft | 485 kts | 66° |
| 2026-05-07 22:19 | 38.46162 | 171.32074 | 34988 ft | 485 kts | 66° |
| 2026-05-07 22:19 | 38.48854 | 171.39967 | 34988 ft | 485 kts | 66° |
| 2026-05-07 22:20 | 38.51531 | 171.47839 | 34988 ft | 485 kts | 66° |
| 2026-05-07 22:20 | 38.54202 | 171.55714 | 34988 ft | 485 kts | 66° |
| 2026-05-07 22:21 | 38.56863 | 171.63580 | 34988 ft | 485 kts | 66° |
| 2026-05-07 22:21 | 38.59540 | 171.71535 | 34988 ft | 485 kts | 67° |
| 2026-05-07 22:22 | 38.62192 | 171.79446 | 34988 ft | 485 kts | 67° |
| 2026-05-07 22:22 | 38.64835 | 171.87335 | 34988 ft | 485 kts | 67° |
| 2026-05-07 22:23 | 38.67480 | 171.95244 | 34988 ft | 485 kts | 67° |
| 2026-05-07 22:23 | 38.70118 | 172.03152 | 34988 ft | 485 kts | 67° |
| 2026-05-07 22:24 | 38.72770 | 172.11122 | 34988 ft | 485 kts | 67° |
| 2026-05-07 22:24 | 38.75395 | 172.19034 | 34988 ft | 485 kts | 67° |
| 2026-05-07 22:25 | 38.78021 | 172.26970 | 34988 ft | 485 kts | 67° |
| 2026-05-07 22:25 | 38.80637 | 172.34897 | 34988 ft | 485 kts | 67° |
| 2026-05-07 22:26 | 38.83263 | 172.42877 | 34988 ft | 485 kts | 67° |
| 2026-05-07 22:26 | 38.85864 | 172.50806 | 34987 ft | 485 kts | 67° |
| 2026-05-07 22:27 | 38.88479 | 172.58795 | 34987 ft | 485 kts | 67° |
| 2026-05-07 22:27 | 38.91085 | 172.66786 | 34988 ft | 485 kts | 67° |
| 2026-05-07 22:28 | 38.93661 | 172.74733 | 34988 ft | 485 kts | 67° |
| 2026-05-07 22:28 | 38.96245 | 172.82716 | 34988 ft | 485 kts | 67° |
| 2026-05-07 22:29 | 38.98832 | 172.90720 | 34988 ft | 485 kts | 67° |
| 2026-05-07 22:29 | 39.01403 | 172.98691 | 34988 ft | 485 kts | 67° |
| 2026-05-07 22:30 | 39.03984 | 173.06714 | 34988 ft | 485 kts | 67° |
| 2026-05-07 22:30 | 39.06553 | 173.14723 | 34988 ft | 485 kts | 67° |
| 2026-05-07 22:31 | 39.09109 | 173.22714 | 34988 ft | 485 kts | 67° |
| 2026-05-07 22:31 | 39.11695 | 173.30778 | 34988 ft | 485 kts | 67° |
| 2026-05-07 22:32 | 39.14269 | 173.38777 | 34988 ft | 485 kts | 67° |
| 2026-05-07 22:32 | 39.16829 | 173.46809 | 34988 ft | 485 kts | 67° |
| 2026-05-07 22:33 | 39.19356 | 173.54787 | 34988 ft | 485 kts | 67° |
| 2026-05-07 22:33 | 39.21910 | 173.62882 | 34988 ft | 485 kts | 67° |
| 2026-05-07 22:34 | 39.24436 | 173.70931 | 34988 ft | 485 kts | 68° |
| 2026-05-07 22:34 | 39.26953 | 173.78987 | 34988 ft | 485 kts | 68° |
| 2026-05-07 22:35 | 39.29453 | 173.86999 | 34988 ft | 486 kts | 68° |
| 2026-05-07 22:35 | 39.31974 | 173.95094 | 34988 ft | 486 kts | 68° |
| 2026-05-07 22:36 | 39.34479 | 174.03159 | 34988 ft | 486 kts | 68° |
| 2026-05-07 22:36 | 39.36982 | 174.11238 | 34988 ft | 486 kts | 68° |
| 2026-05-07 22:37 | 39.39479 | 174.19321 | 34988 ft | 486 kts | 68° |
| 2026-05-07 22:37 | 39.41975 | 174.27425 | 34988 ft | 486 kts | 68° |
| 2026-05-07 22:38 | 39.44457 | 174.35509 | 34988 ft | 486 kts | 68° |
| 2026-05-07 22:38 | 39.46936 | 174.43607 | 34988 ft | 486 kts | 68° |
| 2026-05-07 22:39 | 39.49404 | 174.51689 | 34988 ft | 486 kts | 68° |
| 2026-05-07 22:39 | 39.51884 | 174.59840 | 34988 ft | 486 kts | 68° |
| 2026-05-07 22:40 | 39.54330 | 174.67905 | 34988 ft | 486 kts | 69° |
| 2026-05-07 22:40 | 39.56787 | 174.76059 | 34988 ft | 486 kts | 69° |
| 2026-05-07 22:41 | 39.59240 | 174.84210 | 34988 ft | 486 kts | 69° |
| 2026-05-07 22:41 | 39.61687 | 174.92354 | 34988 ft | 486 kts | 69° |
| 2026-05-07 22:42 | 39.64122 | 175.00482 | 34988 ft | 486 kts | 69° |
| 2026-05-07 22:42 | 39.66549 | 175.08603 | 34988 ft | 486 kts | 69° |
| 2026-05-07 22:43 | 39.68977 | 175.16750 | 34988 ft | 486 kts | 69° |
| 2026-05-07 22:43 | 39.71400 | 175.24907 | 34988 ft | 486 kts | 69° |
| 2026-05-07 22:44 | 39.73830 | 175.33113 | 34988 ft | 486 kts | 69° |
| 2026-05-07 22:44 | 39.76242 | 175.41280 | 34988 ft | 486 kts | 69° |
| 2026-05-07 22:45 | 39.78643 | 175.49442 | 34988 ft | 486 kts | 69° |
| 2026-05-07 22:45 | 39.81042 | 175.57614 | 34987 ft | 486 kts | 69° |
| 2026-05-07 22:46 | 39.83431 | 175.65782 | 34987 ft | 486 kts | 69° |
| 2026-05-07 22:46 | 39.85823 | 175.74013 | 34988 ft | 486 kts | 69° |
| 2026-05-07 22:47 | 39.88189 | 175.82173 | 34988 ft | 486 kts | 69° |
| 2026-05-07 22:47 | 39.90575 | 175.90414 | 34988 ft | 486 kts | 69° |
| 2026-05-07 22:48 | 39.92932 | 175.98579 | 34988 ft | 486 kts | 69° |
| 2026-05-07 22:48 | 39.95299 | 176.06798 | 34988 ft | 486 kts | 69° |
| 2026-05-07 22:49 | 39.97674 | 176.15070 | 34988 ft | 486 kts | 69° |
| 2026-05-07 22:49 | 40.00030 | 176.23305 | 34988 ft | 486 kts | 69° |
| 2026-05-07 22:50 | 40.02367 | 176.31494 | 34988 ft | 485 kts | 69° |
| 2026-05-07 22:50 | 40.04707 | 176.39723 | 34987 ft | 485 kts | 69° |
| 2026-05-07 22:51 | 40.07051 | 176.47994 | 34987 ft | 485 kts | 69° |
| 2026-05-07 22:51 | 40.09372 | 176.56209 | 34987 ft | 485 kts | 69° |
| 2026-05-07 22:52 | 40.11719 | 176.64481 | 34988 ft | 485 kts | 69° |
| 2026-05-07 22:52 | 40.14055 | 176.72722 | 34988 ft | 485 kts | 70° |
| 2026-05-07 22:53 | 40.16367 | 176.80968 | 34988 ft | 485 kts | 70° |
| 2026-05-07 22:53 | 40.18681 | 176.89256 | 34988 ft | 485 kts | 70° |
| 2026-05-07 22:54 | 40.20983 | 176.97537 | 34988 ft | 485 kts | 70° |
| 2026-05-07 22:54 | 40.23268 | 177.05780 | 34988 ft | 485 kts | 70° |
| 2026-05-07 22:55 | 40.25563 | 177.14087 | 34988 ft | 485 kts | 70° |
| 2026-05-07 22:55 | 40.27839 | 177.22353 | 34988 ft | 485 kts | 70° |
| 2026-05-07 22:56 | 40.30117 | 177.30650 | 34988 ft | 485 kts | 70° |
| 2026-05-07 22:56 | 40.32373 | 177.38899 | 34988 ft | 485 kts | 70° |
| 2026-05-07 22:57 | 40.34637 | 177.47201 | 34988 ft | 485 kts | 70° |
| 2026-05-07 22:57 | 40.36910 | 177.55565 | 34988 ft | 485 kts | 70° |
| 2026-05-07 22:58 | 40.39160 | 177.63873 | 34988 ft | 485 kts | 70° |
| 2026-05-07 22:58 | 40.41396 | 177.72176 | 34988 ft | 485 kts | 71° |
| 2026-05-07 22:59 | 40.43630 | 177.80505 | 34988 ft | 485 kts | 71° |
| 2026-05-07 22:59 | 40.45850 | 177.88796 | 34988 ft | 485 kts | 71° |
| 2026-05-07 23:00 | 40.48093 | 177.97188 | 34988 ft | 485 kts | 70° |
| 2026-05-07 23:00 | 40.50301 | 178.05481 | 34988 ft | 485 kts | 70° |
| 2026-05-07 23:01 | 40.52521 | 178.13840 | 34988 ft | 485 kts | 70° |
| 2026-05-07 23:01 | 40.54732 | 178.22198 | 34988 ft | 485 kts | 70° |
| 2026-05-07 23:02 | 40.56940 | 178.30569 | 34988 ft | 485 kts | 70° |
| 2026-05-07 23:02 | 40.59138 | 178.38933 | 34988 ft | 485 kts | 70° |
| 2026-05-07 23:03 | 40.61329 | 178.47299 | 34988 ft | 485 kts | 70° |
| 2026-05-07 23:03 | 40.63520 | 178.55695 | 34988 ft | 485 kts | 70° |
| 2026-05-07 23:04 | 40.65690 | 178.64037 | 34988 ft | 485 kts | 70° |
| 2026-05-07 23:04 | 40.67857 | 178.72415 | 34988 ft | 485 kts | 71° |
| 2026-05-07 23:05 | 40.70019 | 178.80811 | 34988 ft | 485 kts | 71° |
| 2026-05-07 23:05 | 40.72192 | 178.89258 | 34988 ft | 485 kts | 71° |
| 2026-05-07 23:06 | 40.74341 | 178.97639 | 34988 ft | 485 kts | 71° |
| 2026-05-07 23:06 | 40.76496 | 179.06068 | 34988 ft | 485 kts | 71° |
| 2026-05-07 23:07 | 40.78628 | 179.14435 | 34988 ft | 485 kts | 71° |
| 2026-05-07 23:07 | 40.80777 | 179.22897 | 34988 ft | 485 kts | 71° |
| 2026-05-07 23:08 | 40.82901 | 179.31294 | 34988 ft | 485 kts | 71° |
| 2026-05-07 23:08 | 40.85033 | 179.39752 | 34988 ft | 485 kts | 71° |
| 2026-05-07 23:09 | 40.87141 | 179.48140 | 34987 ft | 485 kts | 71° |
| 2026-05-07 23:09 | 40.89253 | 179.56578 | 34987 ft | 485 kts | 71° |
| 2026-05-07 23:10 | 40.91373 | 179.65076 | 34987 ft | 485 kts | 72° |
| 2026-05-07 23:10 | 40.93460 | 179.73498 | 34988 ft | 485 kts | 72° |
| 2026-05-07 23:11 | 40.95553 | 179.81959 | 34988 ft | 485 kts | 72° |
| 2026-05-07 23:11 | 40.97637 | 179.90399 | 34987 ft | 485 kts | 71° |
| 2026-05-07 23:12 | 41.00065 | 179.98715 | 34989 ft | 485 kts | 65° |
| 2026-05-07 23:12 | 41.03142 | -179.93317 | 34989 ft | 485 kts | 59° |
| 2026-05-07 23:13 | 41.06662 | -179.85725 | 34988 ft | 485 kts | 58° |
| 2026-05-07 23:13 | 41.10227 | -179.78171 | 34988 ft | 485 kts | 58° |
| 2026-05-07 23:14 | 41.13803 | -179.70619 | 34988 ft | 485 kts | 58° |
| 2026-05-07 23:14 | 41.17345 | -179.63092 | 34988 ft | 485 kts | 58° |
| 2026-05-07 23:15 | 41.20897 | -179.55490 | 34988 ft | 485 kts | 58° |
| 2026-05-07 23:15 | 41.24443 | -179.47864 | 34988 ft | 485 kts | 58° |
| 2026-05-07 23:16 | 41.27970 | -179.40225 | 34988 ft | 485 kts | 58° |
| 2026-05-07 23:16 | 41.31466 | -179.32645 | 34988 ft | 485 kts | 58° |
| 2026-05-07 23:17 | 41.34998 | -179.24980 | 34988 ft | 485 kts | 58° |
| 2026-05-07 23:17 | 41.38492 | -179.17381 | 34988 ft | 485 kts | 58° |
| 2026-05-07 23:18 | 41.42018 | -179.09695 | 34988 ft | 485 kts | 58° |
| 2026-05-07 23:18 | 41.45505 | -179.02078 | 34988 ft | 485 kts | 58° |
| 2026-05-07 23:19 | 41.49024 | -178.94371 | 34988 ft | 485 kts | 58° |
| 2026-05-07 23:19 | 41.52508 | -178.86719 | 34988 ft | 485 kts | 58° |
| 2026-05-07 23:20 | 41.56004 | -178.79025 | 34988 ft | 485 kts | 58° |
| 2026-05-07 23:20 | 41.59475 | -178.71364 | 34988 ft | 485 kts | 58° |
| 2026-05-07 23:21 | 41.62952 | -178.63672 | 34988 ft | 485 kts | 58° |
| 2026-05-07 23:21 | 41.66432 | -178.55951 | 34988 ft | 485 kts | 58° |
| 2026-05-07 23:22 | 41.69890 | -178.48256 | 34988 ft | 485 kts | 59° |
| 2026-05-07 23:22 | 41.73351 | -178.40509 | 34988 ft | 485 kts | 59° |
| 2026-05-07 23:23 | 41.76797 | -178.32787 | 34988 ft | 485 kts | 59° |
| 2026-05-07 23:23 | 41.80252 | -178.25035 | 34988 ft | 485 kts | 59° |
| 2026-05-07 23:24 | 41.83694 | -178.17297 | 34988 ft | 485 kts | 59° |
| 2026-05-07 23:24 | 41.87127 | -178.09563 | 34988 ft | 485 kts | 59° |
| 2026-05-07 23:25 | 41.90578 | -178.01767 | 34988 ft | 485 kts | 59° |
| 2026-05-07 23:25 | 41.94001 | -177.94016 | 34988 ft | 485 kts | 59° |
| 2026-05-07 23:26 | 41.97432 | -177.86226 | 34988 ft | 485 kts | 59° |
| 2026-05-07 23:26 | 42.00859 | -177.78422 | 34988 ft | 485 kts | 59° |
| 2026-05-07 23:27 | 42.05972 | -177.66746 | 34988 ft | 485 kts | 59° |
| 2026-05-07 23:27 | 42.09384 | -177.58928 | 34987 ft | 485 kts | 59° |
| 2026-05-07 23:28 | 42.12802 | -177.51123 | 34988 ft | 485 kts | 59° |
| 2026-05-07 23:28 | 42.16228 | -177.43292 | 34988 ft | 485 kts | 59° |
| 2026-05-07 23:29 | 42.19613 | -177.35503 | 34989 ft | 485 kts | 59° |
| 2026-05-07 23:29 | 42.23008 | -177.27623 | 34988 ft | 485 kts | 60° |
| 2026-05-07 23:30 | 42.26378 | -177.19774 | 34988 ft | 485 kts | 60° |
| 2026-05-07 23:30 | 42.29764 | -177.11882 | 34988 ft | 485 kts | 60° |
| 2026-05-07 23:31 | 42.33133 | -177.04015 | 34988 ft | 485 kts | 60° |
| 2026-05-07 23:31 | 42.36495 | -176.96144 | 34988 ft | 485 kts | 60° |
| 2026-05-07 23:32 | 42.39850 | -176.88271 | 34988 ft | 485 kts | 60° |
| 2026-05-07 23:32 | 42.43193 | -176.80403 | 34988 ft | 485 kts | 60° |
| 2026-05-07 23:33 | 42.46564 | -176.72450 | 34988 ft | 485 kts | 60° |
| 2026-05-07 23:33 | 42.49905 | -176.64545 | 34988 ft | 485 kts | 60° |
| 2026-05-07 23:34 | 42.53238 | -176.56642 | 34988 ft | 485 kts | 60° |
| 2026-05-07 23:34 | 42.56575 | -176.48703 | 34988 ft | 485 kts | 60° |
| 2026-05-07 23:35 | 42.59891 | -176.40794 | 34988 ft | 485 kts | 60° |
| 2026-05-07 23:35 | 42.63221 | -176.32828 | 34988 ft | 485 kts | 60° |
| 2026-05-07 23:36 | 42.66528 | -176.24866 | 34988 ft | 485 kts | 60° |
| 2026-05-07 23:36 | 42.69835 | -176.16895 | 34988 ft | 485 kts | 60° |
| 2026-05-07 23:37 | 42.73132 | -176.08939 | 34988 ft | 485 kts | 60° |
| 2026-05-07 23:37 | 42.76438 | -176.00940 | 34988 ft | 485 kts | 60° |
| 2026-05-07 23:38 | 42.79733 | -175.92952 | 34988 ft | 485 kts | 60° |
| 2026-05-07 23:38 | 42.83012 | -175.84981 | 34988 ft | 485 kts | 60° |
| 2026-05-07 23:39 | 42.86291 | -175.76985 | 34988 ft | 485 kts | 60° |
| 2026-05-07 23:39 | 42.89568 | -175.68973 | 34988 ft | 485 kts | 60° |
| 2026-05-07 23:40 | 42.92852 | -175.60924 | 34988 ft | 485 kts | 60° |
| 2026-05-07 23:40 | 42.96123 | -175.52884 | 34987 ft | 485 kts | 60° |
| 2026-05-07 23:41 | 42.99383 | -175.44846 | 34987 ft | 485 kts | 60° |
| 2026-05-07 23:41 | 43.02630 | -175.36821 | 34987 ft | 485 kts | 60° |
| 2026-05-07 23:42 | 43.05879 | -175.28748 | 34988 ft | 485 kts | 61° |
| 2026-05-07 23:42 | 43.09127 | -175.20647 | 34988 ft | 485 kts | 61° |
| 2026-05-07 23:43 | 43.12365 | -175.12607 | 34988 ft | 485 kts | 61° |
| 2026-05-07 23:43 | 43.15611 | -175.04556 | 34988 ft | 485 kts | 61° |
| 2026-05-07 23:44 | 43.18847 | -174.96475 | 34988 ft | 485 kts | 61° |
| 2026-05-07 23:44 | 43.22079 | -174.88359 | 34988 ft | 485 kts | 61° |
| 2026-05-07 23:45 | 43.25298 | -174.80246 | 34988 ft | 485 kts | 61° |
| 2026-05-07 23:45 | 43.28507 | -174.72136 | 34988 ft | 485 kts | 61° |
| 2026-05-07 23:46 | 43.31707 | -174.64021 | 34988 ft | 485 kts | 61° |
| 2026-05-07 23:46 | 43.34911 | -174.55876 | 34988 ft | 485 kts | 61° |
| 2026-05-07 23:47 | 43.38103 | -174.47736 | 34988 ft | 485 kts | 61° |
| 2026-05-07 23:47 | 43.41286 | -174.39595 | 34988 ft | 485 kts | 61° |
| 2026-05-07 23:48 | 43.44473 | -174.31415 | 34988 ft | 485 kts | 62° |
| 2026-05-07 23:48 | 43.47639 | -174.23238 | 34988 ft | 485 kts | 62° |
| 2026-05-07 23:49 | 43.50802 | -174.15063 | 34988 ft | 485 kts | 62° |
| 2026-05-07 23:49 | 43.53971 | -174.06859 | 34988 ft | 485 kts | 62° |
| 2026-05-07 23:50 | 43.57140 | -173.98634 | 34988 ft | 485 kts | 62° |
| 2026-05-07 23:50 | 43.60289 | -173.90442 | 34988 ft | 486 kts | 62° |
| 2026-05-07 23:51 | 43.63437 | -173.82225 | 34988 ft | 486 kts | 62° |
| 2026-05-07 23:51 | 43.66572 | -173.74019 | 34988 ft | 486 kts | 62° |
| 2026-05-07 23:52 | 43.69711 | -173.65781 | 34988 ft | 486 kts | 62° |
| 2026-05-07 23:52 | 43.72830 | -173.57568 | 34988 ft | 486 kts | 62° |
| 2026-05-07 23:53 | 43.75972 | -173.49272 | 34988 ft | 486 kts | 62° |
| 2026-05-07 23:53 | 43.79086 | -173.41025 | 34987 ft | 486 kts | 62° |
| 2026-05-07 23:54 | 43.82200 | -173.32753 | 34988 ft | 486 kts | 63° |
| 2026-05-07 23:54 | 43.85291 | -173.24487 | 34988 ft | 486 kts | 63° |
| 2026-05-07 23:55 | 43.88377 | -173.16223 | 34988 ft | 486 kts | 63° |
| 2026-05-07 23:55 | 43.91469 | -173.07930 | 34988 ft | 486 kts | 63° |
| 2026-05-07 23:56 | 43.94564 | -172.99608 | 34988 ft | 486 kts | 63° |
| 2026-05-07 23:56 | 43.97633 | -172.91334 | 34988 ft | 486 kts | 63° |
| 2026-05-07 23:57 | 44.00722 | -172.82982 | 34988 ft | 486 kts | 63° |
| 2026-05-07 23:57 | 44.03778 | -172.74693 | 34988 ft | 486 kts | 63° |
| 2026-05-07 23:58 | 44.06848 | -172.66342 | 34987 ft | 486 kts | 63° |
| 2026-05-07 23:58 | 44.09914 | -172.57977 | 34987 ft | 486 kts | 63° |
| 2026-05-07 23:59 | 44.12991 | -172.49625 | 34988 ft | 486 kts | 62° |
| 2026-05-07 23:59 | 44.16054 | -172.41284 | 34989 ft | 486 kts | 63° |
| 2026-05-08 00:00 | 44.19097 | -172.32928 | 34988 ft | 486 kts | 63° |
| 2026-05-08 00:00 | 44.22126 | -172.24539 | 34988 ft | 486 kts | 63° |
| 2026-05-08 00:01 | 44.25150 | -172.16145 | 34988 ft | 486 kts | 63° |
| 2026-05-08 00:01 | 44.28170 | -172.07745 | 34988 ft | 486 kts | 63° |
| 2026-05-08 00:02 | 44.31168 | -171.99390 | 34988 ft | 486 kts | 63° |
| 2026-05-08 00:02 | 44.34193 | -171.90929 | 34988 ft | 486 kts | 63° |
| 2026-05-08 00:03 | 44.37185 | -171.82539 | 34988 ft | 486 kts | 63° |
| 2026-05-08 00:03 | 44.40179 | -171.74115 | 34988 ft | 486 kts | 63° |
| 2026-05-08 00:04 | 44.43178 | -171.65655 | 34988 ft | 486 kts | 63° |
| 2026-05-08 00:04 | 44.46153 | -171.57234 | 34988 ft | 486 kts | 63° |
| 2026-05-08 00:05 | 44.49144 | -171.48743 | 34988 ft | 486 kts | 63° |
| 2026-05-08 00:05 | 44.52109 | -171.40297 | 34988 ft | 486 kts | 63° |
| 2026-05-08 00:06 | 44.55074 | -171.31819 | 34988 ft | 486 kts | 64° |
| 2026-05-08 00:06 | 44.58031 | -171.23314 | 34988 ft | 486 kts | 64° |
| 2026-05-08 00:07 | 44.60977 | -171.14825 | 34988 ft | 486 kts | 64° |
| 2026-05-08 00:07 | 44.63919 | -171.06334 | 34988 ft | 486 kts | 64° |
| 2026-05-08 00:08 | 44.66868 | -170.97800 | 34988 ft | 486 kts | 64° |
| 2026-05-08 00:08 | 44.69790 | -170.89319 | 34988 ft | 486 kts | 64° |
| 2026-05-08 00:09 | 44.72724 | -170.80775 | 34988 ft | 486 kts | 64° |
| 2026-05-08 00:09 | 44.75649 | -170.72231 | 34988 ft | 485 kts | 64° |
| 2026-05-08 00:10 | 44.78549 | -170.63731 | 34988 ft | 485 kts | 64° |
| 2026-05-08 00:10 | 44.81467 | -170.55154 | 34988 ft | 485 kts | 64° |
| 2026-05-08 00:11 | 44.84357 | -170.46631 | 34987 ft | 485 kts | 64° |
| 2026-05-08 00:11 | 44.87268 | -170.38016 | 34987 ft | 485 kts | 64° |
| 2026-05-08 00:12 | 44.90134 | -170.29497 | 34988 ft | 485 kts | 65° |
| 2026-05-08 00:12 | 44.93019 | -170.20882 | 34988 ft | 485 kts | 65° |
| 2026-05-08 00:13 | 44.95891 | -170.12300 | 34988 ft | 485 kts | 65° |
| 2026-05-08 00:13 | 44.98769 | -170.03670 | 34987 ft | 485 kts | 65° |
| 2026-05-08 00:14 | 45.01287 | -169.94878 | 34988 ft | 485 kts | 70° |
| 2026-05-08 00:14 | 45.03526 | -169.85941 | 34988 ft | 485 kts | 70° |
| 2026-05-08 00:15 | 45.05767 | -169.76915 | 34988 ft | 485 kts | 70° |
| 2026-05-08 00:15 | 45.07992 | -169.67953 | 34987 ft | 485 kts | 70° |
| 2026-05-08 00:16 | 45.10224 | -169.58948 | 34987 ft | 485 kts | 70° |
| 2026-05-08 00:16 | 45.12460 | -169.50017 | 34988 ft | 485 kts | 70° |
| 2026-05-08 00:17 | 45.14703 | -169.40996 | 34989 ft | 485 kts | 70° |
| 2026-05-08 00:17 | 45.16924 | -169.31969 | 34988 ft | 485 kts | 71° |
| 2026-05-08 00:18 | 45.19121 | -169.22952 | 34988 ft | 485 kts | 71° |
| 2026-05-08 00:18 | 45.21314 | -169.13924 | 34988 ft | 485 kts | 71° |
| 2026-05-08 00:19 | 45.23491 | -169.04929 | 34988 ft | 485 kts | 71° |
| 2026-05-08 00:19 | 45.25677 | -168.95866 | 34988 ft | 485 kts | 71° |
| 2026-05-08 00:20 | 45.27842 | -168.86858 | 34988 ft | 485 kts | 71° |
| 2026-05-08 00:20 | 45.30015 | -168.77782 | 34988 ft | 485 kts | 71° |
| 2026-05-08 00:21 | 45.32168 | -168.68749 | 34988 ft | 485 kts | 71° |
| 2026-05-08 00:21 | 45.34329 | -168.59645 | 34988 ft | 485 kts | 71° |
| 2026-05-08 00:22 | 45.36465 | -168.50612 | 34988 ft | 485 kts | 71° |
| 2026-05-08 00:22 | 45.38608 | -168.41510 | 34988 ft | 485 kts | 71° |
| 2026-05-08 00:23 | 45.40733 | -168.32448 | 34988 ft | 485 kts | 72° |
| 2026-05-08 00:23 | 45.42860 | -168.23306 | 34988 ft | 485 kts | 72° |
| 2026-05-08 00:24 | 45.44963 | -168.14243 | 34988 ft | 485 kts | 72° |
| 2026-05-08 00:24 | 45.47073 | -168.05127 | 34988 ft | 485 kts | 72° |
| 2026-05-08 00:25 | 45.49176 | -167.96004 | 34988 ft | 485 kts | 72° |
| 2026-05-08 00:25 | 45.51270 | -167.86887 | 34988 ft | 485 kts | 72° |
| 2026-05-08 00:26 | 45.53354 | -167.77773 | 34988 ft | 485 kts | 72° |
| 2026-05-08 00:26 | 45.55430 | -167.68658 | 34988 ft | 485 kts | 72° |
| 2026-05-08 00:27 | 45.57511 | -167.59477 | 34988 ft | 485 kts | 72° |
| 2026-05-08 00:27 | 45.59569 | -167.50362 | 34988 ft | 485 kts | 72° |
| 2026-05-08 00:28 | 45.61637 | -167.41164 | 34988 ft | 485 kts | 72° |
| 2026-05-08 00:28 | 45.63678 | -167.32045 | 34988 ft | 485 kts | 72° |
| 2026-05-08 00:29 | 45.65722 | -167.22842 | 34988 ft | 485 kts | 72° |
| 2026-05-08 00:29 | 45.67757 | -167.13654 | 34988 ft | 485 kts | 72° |
| 2026-05-08 00:30 | 45.69781 | -167.04485 | 34988 ft | 485 kts | 72° |
| 2026-05-08 00:30 | 45.71800 | -166.95309 | 34988 ft | 485 kts | 72° |
| 2026-05-08 00:31 | 45.73820 | -166.86085 | 34988 ft | 485 kts | 72° |
| 2026-05-08 00:31 | 45.75826 | -166.76886 | 34988 ft | 486 kts | 72° |
| 2026-05-08 00:32 | 45.77823 | -166.67693 | 34988 ft | 486 kts | 72° |
| 2026-05-08 00:32 | 45.79809 | -166.58505 | 34988 ft | 486 kts | 72° |
| 2026-05-08 00:33 | 45.81802 | -166.49246 | 34987 ft | 486 kts | 72° |
| 2026-05-08 00:33 | 45.83775 | -166.40036 | 34987 ft | 486 kts | 72° |
| 2026-05-08 00:34 | 45.85744 | -166.30800 | 34988 ft | 486 kts | 73° |
| 2026-05-08 00:34 | 45.87693 | -166.21590 | 34988 ft | 486 kts | 73° |
| 2026-05-08 00:35 | 45.89643 | -166.12346 | 34988 ft | 486 kts | 73° |
| 2026-05-08 00:35 | 45.91602 | -166.03030 | 34988 ft | 486 kts | 73° |
| 2026-05-08 00:36 | 45.93536 | -165.93796 | 34988 ft | 486 kts | 73° |
| 2026-05-08 00:36 | 45.95461 | -165.84566 | 34988 ft | 486 kts | 73° |
| 2026-05-08 00:37 | 45.97395 | -165.75247 | 34988 ft | 486 kts | 73° |
| 2026-05-08 00:38 | 46.00269 | -165.61327 | 34987 ft | 486 kts | 73° |
| 2026-05-08 00:38 | 46.02170 | -165.52058 | 34987 ft | 486 kts | 73° |
| 2026-05-08 00:39 | 46.04079 | -165.42714 | 34987 ft | 486 kts | 73° |
| 2026-05-08 00:39 | 46.05965 | -165.33435 | 34987 ft | 486 kts | 74° |
| 2026-05-08 00:40 | 46.07841 | -165.24133 | 34988 ft | 486 kts | 74° |
| 2026-05-08 00:40 | 46.09714 | -165.14812 | 34988 ft | 486 kts | 74° |
| 2026-05-08 00:41 | 46.11604 | -165.05479 | 34988 ft | 486 kts | 73° |
| 2026-05-08 00:41 | 46.13490 | -164.96158 | 34988 ft | 486 kts | 74° |
| 2026-05-08 00:42 | 46.15343 | -164.86877 | 34988 ft | 486 kts | 74° |
| 2026-05-08 00:42 | 46.17202 | -164.77490 | 34988 ft | 486 kts | 74° |
| 2026-05-08 00:43 | 46.19038 | -164.68158 | 34988 ft | 486 kts | 74° |
| 2026-05-08 00:43 | 46.20869 | -164.58806 | 34988 ft | 486 kts | 74° |
| 2026-05-08 00:44 | 46.22690 | -164.49457 | 34988 ft | 486 kts | 74° |
| 2026-05-08 00:44 | 46.24514 | -164.40048 | 34988 ft | 486 kts | 74° |
| 2026-05-08 00:45 | 46.26310 | -164.30727 | 34988 ft | 486 kts | 75° |
| 2026-05-08 00:45 | 46.28107 | -164.21330 | 34988 ft | 486 kts | 75° |
| 2026-05-08 00:46 | 46.29894 | -164.11955 | 34988 ft | 486 kts | 75° |
| 2026-05-08 00:46 | 46.31686 | -164.02522 | 34988 ft | 486 kts | 75° |
| 2026-05-08 00:47 | 46.33460 | -163.93137 | 34988 ft | 486 kts | 75° |
| 2026-05-08 00:47 | 46.35229 | -163.83733 | 34988 ft | 486 kts | 75° |
| 2026-05-08 00:48 | 46.36990 | -163.74332 | 34988 ft | 485 kts | 75° |
| 2026-05-08 00:48 | 46.38741 | -163.64929 | 34988 ft | 485 kts | 75° |
| 2026-05-08 00:49 | 46.40483 | -163.55527 | 34988 ft | 485 kts | 75° |
| 2026-05-08 00:49 | 46.42223 | -163.46092 | 34988 ft | 485 kts | 75° |
| 2026-05-08 00:50 | 46.43960 | -163.36626 | 34988 ft | 485 kts | 75° |
| 2026-05-08 00:50 | 46.45670 | -163.27239 | 34988 ft | 485 kts | 75° |
| 2026-05-08 00:51 | 46.47384 | -163.17770 | 34988 ft | 485 kts | 75° |
| 2026-05-08 00:51 | 46.49086 | -163.08336 | 34988 ft | 485 kts | 75° |
| 2026-05-08 00:52 | 46.50787 | -162.98866 | 34988 ft | 485 kts | 75° |
| 2026-05-08 00:52 | 46.52482 | -162.89386 | 34988 ft | 485 kts | 75° |
| 2026-05-08 00:53 | 46.54159 | -162.79958 | 34988 ft | 485 kts | 75° |
| 2026-05-08 00:53 | 46.55839 | -162.70459 | 34988 ft | 485 kts | 75° |
| 2026-05-08 00:54 | 46.57508 | -162.60976 | 34988 ft | 485 kts | 75° |
| 2026-05-08 00:54 | 46.59160 | -162.51535 | 34988 ft | 485 kts | 75° |
| 2026-05-08 00:55 | 46.60810 | -162.42062 | 34988 ft | 485 kts | 75° |
| 2026-05-08 00:55 | 46.62460 | -162.32530 | 34988 ft | 485 kts | 76° |
| 2026-05-08 00:56 | 46.64084 | -162.23068 | 34988 ft | 485 kts | 76° |
| 2026-05-08 00:56 | 46.65708 | -162.13573 | 34988 ft | 485 kts | 76° |
| 2026-05-08 00:57 | 46.67327 | -162.04059 | 34988 ft | 485 kts | 76° |
| 2026-05-08 00:57 | 46.68947 | -161.94498 | 34988 ft | 485 kts | 76° |
| 2026-05-08 00:58 | 46.70548 | -161.84999 | 34988 ft | 485 kts | 76° |
| 2026-05-08 00:58 | 46.72143 | -161.75482 | 34988 ft | 485 kts | 76° |
| 2026-05-08 00:59 | 46.73740 | -161.65898 | 34988 ft | 485 kts | 76° |
| 2026-05-08 00:59 | 46.75315 | -161.56400 | 34988 ft | 485 kts | 76° |
| 2026-05-08 01:00 | 46.76887 | -161.46857 | 34987 ft | 485 kts | 76° |
| 2026-05-08 01:00 | 46.78450 | -161.37317 | 34987 ft | 485 kts | 76° |
| 2026-05-08 01:01 | 46.80007 | -161.27748 | 34988 ft | 485 kts | 77° |
| 2026-05-08 01:01 | 46.81555 | -161.18167 | 34988 ft | 485 kts | 77° |
| 2026-05-08 01:02 | 46.83099 | -161.08572 | 34988 ft | 485 kts | 77° |
| 2026-05-08 01:02 | 46.84623 | -160.99056 | 34988 ft | 485 kts | 77° |
| 2026-05-08 01:03 | 46.86149 | -160.89479 | 34988 ft | 485 kts | 77° |
| 2026-05-08 01:03 | 46.87667 | -160.79887 | 34988 ft | 485 kts | 77° |
| 2026-05-08 01:04 | 46.89176 | -160.70306 | 34988 ft | 485 kts | 77° |
| 2026-05-08 01:04 | 46.90681 | -160.60690 | 34987 ft | 485 kts | 77° |
| 2026-05-08 01:05 | 46.92179 | -160.51062 | 34987 ft | 485 kts | 77° |
| 2026-05-08 01:05 | 46.93665 | -160.41463 | 34987 ft | 485 kts | 77° |
| 2026-05-08 01:06 | 46.95145 | -160.31836 | 34988 ft | 485 kts | 77° |
| 2026-05-08 01:06 | 46.96605 | -160.22269 | 34988 ft | 485 kts | 77° |
| 2026-05-08 01:07 | 46.98071 | -160.12620 | 34988 ft | 485 kts | 77° |
| 2026-05-08 01:07 | 46.99456 | -160.02988 | 34987 ft | 485 kts | 80° |
| 2026-05-08 01:08 | 47.00263 | -159.93198 | 34986 ft | 485 kts | 86° |
| 2026-05-08 01:08 | 47.00686 | -159.83334 | 34987 ft | 485 kts | 86° |
| 2026-05-08 01:09 | 47.01083 | -159.73494 | 34988 ft | 485 kts | 86° |
| 2026-05-08 01:09 | 47.01479 | -159.63644 | 34987 ft | 485 kts | 86° |
| 2026-05-08 01:10 | 47.01870 | -159.53799 | 34987 ft | 485 kts | 86° |
| 2026-05-08 01:10 | 47.02255 | -159.43945 | 34987 ft | 485 kts | 86° |
| 2026-05-08 01:11 | 47.02633 | -159.34067 | 34987 ft | 485 kts | 87° |
| 2026-05-08 01:11 | 47.02999 | -159.24266 | 34988 ft | 485 kts | 87° |
| 2026-05-08 01:12 | 47.03359 | -159.14424 | 34988 ft | 485 kts | 87° |
| 2026-05-08 01:12 | 47.03712 | -159.04527 | 34988 ft | 485 kts | 87° |
| 2026-05-08 01:13 | 47.04054 | -158.94688 | 34988 ft | 485 kts | 87° |
| 2026-05-08 01:13 | 47.04388 | -158.84851 | 34988 ft | 485 kts | 87° |
| 2026-05-08 01:14 | 47.04716 | -158.74942 | 34988 ft | 486 kts | 87° |
| 2026-05-08 01:14 | 47.05035 | -158.65079 | 34987 ft | 486 kts | 87° |
| 2026-05-08 01:15 | 47.05342 | -158.55269 | 34987 ft | 486 kts | 87° |
| 2026-05-08 01:15 | 47.05645 | -158.45354 | 34987 ft | 486 kts | 87° |
| 2026-05-08 01:16 | 47.05938 | -158.35484 | 34987 ft | 486 kts | 87° |
| 2026-05-08 01:16 | 47.06221 | -158.25618 | 34988 ft | 486 kts | 88° |
| 2026-05-08 01:17 | 47.06496 | -158.15776 | 34988 ft | 486 kts | 88° |
| 2026-05-08 01:17 | 47.06764 | -158.05898 | 34988 ft | 486 kts | 88° |
| 2026-05-08 01:18 | 47.07022 | -157.96021 | 34988 ft | 486 kts | 88° |
| 2026-05-08 01:18 | 47.07272 | -157.86171 | 34988 ft | 486 kts | 88° |
| 2026-05-08 01:19 | 47.07513 | -157.76309 | 34988 ft | 486 kts | 88° |
| 2026-05-08 01:19 | 47.07746 | -157.66449 | 34987 ft | 486 kts | 88° |
| 2026-05-08 01:20 | 47.07972 | -157.56554 | 34987 ft | 486 kts | 88° |
| 2026-05-08 01:20 | 47.08188 | -157.46692 | 34987 ft | 486 kts | 88° |
| 2026-05-08 01:21 | 47.08395 | -157.36827 | 34987 ft | 486 kts | 88° |
| 2026-05-08 01:21 | 47.08596 | -157.26897 | 34988 ft | 486 kts | 88° |
| 2026-05-08 01:22 | 47.08785 | -157.17070 | 34988 ft | 486 kts | 88° |
| 2026-05-08 01:22 | 47.08969 | -157.07135 | 34988 ft | 486 kts | 88° |
| 2026-05-08 01:23 | 47.09142 | -156.97279 | 34988 ft | 486 kts | 88° |
| 2026-05-08 01:23 | 47.09307 | -156.87407 | 34988 ft | 486 kts | 88° |
| 2026-05-08 01:24 | 47.09464 | -156.77554 | 34988 ft | 486 kts | 88° |
| 2026-05-08 01:24 | 47.09612 | -156.67677 | 34987 ft | 486 kts | 88° |
| 2026-05-08 01:25 | 47.09752 | -156.57777 | 34987 ft | 486 kts | 88° |
| 2026-05-08 01:25 | 47.09884 | -156.47864 | 34987 ft | 486 kts | 88° |
| 2026-05-08 01:26 | 47.10007 | -156.37967 | 34987 ft | 486 kts | 88° |
| 2026-05-08 01:26 | 47.10149 | -156.28145 | 34988 ft | 486 kts | 89° |
| 2026-05-08 01:27 | 47.10277 | -156.18271 | 34988 ft | 486 kts | 89° |
| 2026-05-08 01:27 | 47.10384 | -156.08337 | 34988 ft | 486 kts | 89° |
| 2026-05-08 01:28 | 47.10475 | -155.98496 | 34988 ft | 486 kts | 89° |
| 2026-05-08 01:28 | 47.10557 | -155.88585 | 34988 ft | 486 kts | 89° |
| 2026-05-08 01:29 | 47.10630 | -155.78653 | 34988 ft | 486 kts | 89° |
| 2026-05-08 01:29 | 47.10693 | -155.68834 | 34988 ft | 485 kts | 89° |
| 2026-05-08 01:30 | 47.10748 | -155.58888 | 34988 ft | 485 kts | 89° |
| 2026-05-08 01:30 | 47.10794 | -155.49060 | 34989 ft | 485 kts | 89° |
| 2026-05-08 01:31 | 47.10833 | -155.39149 | 34989 ft | 485 kts | 89° |
| 2026-05-08 01:31 | 47.10862 | -155.29271 | 34988 ft | 485 kts | 90° |
| 2026-05-08 01:32 | 47.10883 | -155.19438 | 34988 ft | 485 kts | 90° |
| 2026-05-08 01:32 | 47.10895 | -155.09546 | 34988 ft | 485 kts | 90° |
| 2026-05-08 01:33 | 47.10899 | -154.99640 | 34988 ft | 485 kts | 90° |
| 2026-05-08 01:33 | 47.10894 | -154.89787 | 34988 ft | 485 kts | 90° |
| 2026-05-08 01:34 | 47.10881 | -154.79924 | 34988 ft | 485 kts | 90° |
| 2026-05-08 01:34 | 47.10860 | -154.70032 | 34988 ft | 485 kts | 90° |
| 2026-05-08 01:35 | 47.10830 | -154.60181 | 34988 ft | 485 kts | 90° |
| 2026-05-08 01:35 | 47.10791 | -154.50299 | 34989 ft | 485 kts | 90° |
| 2026-05-08 01:36 | 47.10744 | -154.40440 | 34989 ft | 485 kts | 90° |
| 2026-05-08 01:36 | 47.10689 | -154.30563 | 34988 ft | 485 kts | 91° |
| 2026-05-08 01:37 | 47.10625 | -154.20708 | 34988 ft | 485 kts | 91° |
| 2026-05-08 01:37 | 47.10553 | -154.10815 | 34988 ft | 485 kts | 91° |
| 2026-05-08 01:38 | 47.10472 | -154.00949 | 34988 ft | 485 kts | 91° |
| 2026-05-08 01:38 | 47.10383 | -153.91086 | 34988 ft | 485 kts | 91° |
| 2026-05-08 01:39 | 47.10284 | -153.81160 | 34988 ft | 485 kts | 91° |
| 2026-05-08 01:39 | 47.10179 | -153.71309 | 34988 ft | 485 kts | 91° |
| 2026-05-08 01:40 | 47.10064 | -153.61452 | 34988 ft | 485 kts | 91° |
| 2026-05-08 01:40 | 47.09941 | -153.51562 | 34989 ft | 485 kts | 91° |
| 2026-05-08 01:41 | 47.09809 | -153.41695 | 34989 ft | 485 kts | 91° |
| 2026-05-08 01:41 | 47.09668 | -153.31786 | 34988 ft | 485 kts | 91° |
| 2026-05-08 01:42 | 47.09520 | -153.21925 | 34988 ft | 485 kts | 91° |
| 2026-05-08 01:42 | 47.09363 | -153.12061 | 34988 ft | 485 kts | 91° |
| 2026-05-08 01:43 | 47.09197 | -153.02193 | 34988 ft | 485 kts | 91° |
| 2026-05-08 01:43 | 47.09022 | -152.92276 | 34988 ft | 485 kts | 91° |
| 2026-05-08 01:44 | 47.08840 | -152.82437 | 34988 ft | 485 kts | 91° |
| 2026-05-08 01:44 | 47.08648 | -152.72516 | 34988 ft | 485 kts | 91° |
| 2026-05-08 01:45 | 47.08449 | -152.62680 | 34988 ft | 485 kts | 91° |
| 2026-05-08 01:45 | 47.08241 | -152.52828 | 34989 ft | 485 kts | 91° |
| 2026-05-08 01:46 | 47.08024 | -152.42918 | 34989 ft | 485 kts | 91° |
| 2026-05-08 01:46 | 47.07798 | -152.33022 | 34989 ft | 485 kts | 92° |
| 2026-05-08 01:47 | 47.07566 | -152.23198 | 34988 ft | 485 kts | 92° |
| 2026-05-08 01:47 | 47.07324 | -152.13342 | 34988 ft | 485 kts | 92° |
| 2026-05-08 01:48 | 47.06943 | -151.98492 | 34988 ft | 485 kts | 92° |
| 2026-05-08 01:48 | 47.06681 | -151.88647 | 34988 ft | 485 kts | 92° |
| 2026-05-08 01:49 | 47.06410 | -151.78796 | 34988 ft | 485 kts | 92° |
| 2026-05-08 01:49 | 47.06129 | -151.68939 | 34988 ft | 485 kts | 92° |
| 2026-05-08 01:50 | 47.05839 | -151.59024 | 34989 ft | 485 kts | 92° |
| 2026-05-08 01:50 | 47.05542 | -151.49161 | 34989 ft | 485 kts | 92° |
| 2026-05-08 01:51 | 47.05237 | -151.39328 | 34989 ft | 485 kts | 92° |
| 2026-05-08 01:51 | 47.04923 | -151.29483 | 34988 ft | 485 kts | 93° |
| 2026-05-08 01:52 | 47.04601 | -151.19630 | 34988 ft | 485 kts | 93° |
| 2026-05-08 01:52 | 47.04270 | -151.09752 | 34988 ft | 485 kts | 93° |
| 2026-05-08 01:53 | 47.03928 | -150.99852 | 34988 ft | 485 kts | 93° |
| 2026-05-08 01:53 | 47.03582 | -150.90041 | 34988 ft | 485 kts | 93° |
| 2026-05-08 01:54 | 47.03224 | -150.80148 | 34988 ft | 485 kts | 93° |
| 2026-05-08 01:54 | 47.02859 | -150.70311 | 34988 ft | 485 kts | 93° |
| 2026-05-08 01:55 | 47.02486 | -150.60483 | 34989 ft | 485 kts | 93° |
| 2026-05-08 01:55 | 47.02102 | -150.50584 | 34989 ft | 485 kts | 93° |
| 2026-05-08 01:56 | 47.01711 | -150.40733 | 34989 ft | 485 kts | 93° |
| 2026-05-08 01:56 | 47.01313 | -150.30931 | 34988 ft | 485 kts | 94° |
| 2026-05-08 01:57 | 47.00905 | -150.21103 | 34988 ft | 485 kts | 94° |
| 2026-05-08 01:57 | 47.00483 | -150.11202 | 34988 ft | 485 kts | 94° |
| 2026-05-08 01:58 | 47.00139 | -150.01349 | 34986 ft | 485 kts | 91° |
| 2026-05-08 01:58 | 47.00355 | -149.91493 | 34987 ft | 486 kts | 86° |
| 2026-05-08 01:59 | 47.00784 | -149.81656 | 34988 ft | 486 kts | 86° |
| 2026-05-08 01:59 | 47.01206 | -149.71809 | 34988 ft | 486 kts | 86° |
| 2026-05-08 02:00 | 47.01612 | -149.61964 | 34989 ft | 486 kts | 86° |
| 2026-05-08 02:00 | 47.02006 | -149.52127 | 34989 ft | 486 kts | 86° |
| 2026-05-08 02:01 | 47.02391 | -149.42281 | 34989 ft | 486 kts | 86° |
| 2026-05-08 02:01 | 47.02766 | -149.32448 | 34988 ft | 486 kts | 87° |
| 2026-05-08 02:02 | 47.03134 | -149.22542 | 34988 ft | 486 kts | 87° |
| 2026-05-08 02:02 | 47.03491 | -149.12705 | 34988 ft | 486 kts | 87° |
| 2026-05-08 02:03 | 47.03841 | -149.02859 | 34988 ft | 486 kts | 87° |
| 2026-05-08 02:03 | 47.04184 | -148.92960 | 34988 ft | 486 kts | 87° |
| 2026-05-08 02:04 | 47.04517 | -148.83127 | 34988 ft | 486 kts | 87° |
| 2026-05-08 02:04 | 47.04841 | -148.73297 | 34988 ft | 486 kts | 87° |
| 2026-05-08 02:05 | 47.05159 | -148.63384 | 34988 ft | 486 kts | 87° |
| 2026-05-08 02:05 | 47.05468 | -148.53517 | 34989 ft | 486 kts | 87° |
| 2026-05-08 02:06 | 47.05766 | -148.43695 | 34989 ft | 486 kts | 87° |
| 2026-05-08 02:06 | 47.06057 | -148.33846 | 34989 ft | 486 kts | 88° |
| 2026-05-08 02:07 | 47.06340 | -148.23938 | 34988 ft | 486 kts | 88° |
| 2026-05-08 02:07 | 47.06613 | -148.14085 | 34988 ft | 486 kts | 88° |
| 2026-05-08 02:08 | 47.06878 | -148.04228 | 34988 ft | 486 kts | 88° |
| 2026-05-08 02:08 | 47.07136 | -147.94324 | 34988 ft | 486 kts | 88° |
| 2026-05-08 02:09 | 47.07384 | -147.84483 | 34988 ft | 486 kts | 88° |
| 2026-05-08 02:09 | 47.07626 | -147.74570 | 34988 ft | 486 kts | 88° |
| 2026-05-08 02:10 | 47.07857 | -147.64722 | 34988 ft | 486 kts | 88° |
| 2026-05-08 02:10 | 47.08081 | -147.54819 | 34989 ft | 486 kts | 88° |
| 2026-05-08 02:11 | 47.08296 | -147.44966 | 34989 ft | 486 kts | 88° |
| 2026-05-08 02:11 | 47.08503 | -147.35063 | 34989 ft | 486 kts | 88° |
| 2026-05-08 02:12 | 47.08699 | -147.25250 | 34988 ft | 486 kts | 88° |
| 2026-05-08 02:12 | 47.08888 | -147.15356 | 34988 ft | 486 kts | 88° |
| 2026-05-08 02:13 | 47.09069 | -147.05441 | 34988 ft | 486 kts | 88° |
| 2026-05-08 02:13 | 47.09241 | -146.95593 | 34988 ft | 486 kts | 88° |
| 2026-05-08 02:14 | 47.09406 | -146.85683 | 34988 ft | 486 kts | 88° |
| 2026-05-08 02:14 | 47.09561 | -146.75819 | 34988 ft | 486 kts | 88° |
| 2026-05-08 02:15 | 47.09708 | -146.65920 | 34988 ft | 485 kts | 88° |
| 2026-05-08 02:15 | 47.09846 | -146.56079 | 34988 ft | 485 kts | 88° |
| 2026-05-08 02:16 | 47.09977 | -146.46164 | 34989 ft | 485 kts | 88° |
| 2026-05-08 02:16 | 47.10098 | -146.36316 | 34989 ft | 485 kts | 88° |
| 2026-05-08 02:17 | 47.10210 | -146.26440 | 34988 ft | 485 kts | 89° |
| 2026-05-08 02:17 | 47.10314 | -146.16576 | 34988 ft | 485 kts | 89° |
| 2026-05-08 02:18 | 47.10410 | -146.06700 | 34988 ft | 485 kts | 89° |
| 2026-05-08 02:18 | 47.10497 | -145.96794 | 34988 ft | 485 kts | 89° |
| 2026-05-08 02:19 | 47.10576 | -145.86942 | 34988 ft | 485 kts | 89° |
| 2026-05-08 02:19 | 47.10647 | -145.77014 | 34988 ft | 485 kts | 89° |
| 2026-05-08 02:20 | 47.10709 | -145.67148 | 34988 ft | 485 kts | 89° |
| 2026-05-08 02:20 | 47.10763 | -145.57298 | 34988 ft | 485 kts | 89° |
| 2026-05-08 02:21 | 47.10808 | -145.47383 | 34989 ft | 485 kts | 89° |
| 2026-05-08 02:21 | 47.10844 | -145.37535 | 34989 ft | 485 kts | 89° |
| 2026-05-08 02:22 | 47.10872 | -145.27618 | 34988 ft | 485 kts | 90° |
| 2026-05-08 02:22 | 47.10891 | -145.17746 | 34988 ft | 485 kts | 90° |
| 2026-05-08 02:23 | 47.10902 | -145.07863 | 34988 ft | 485 kts | 90° |
| 2026-05-08 02:23 | 47.10905 | -144.98012 | 34988 ft | 485 kts | 90° |
| 2026-05-08 02:24 | 47.10899 | -144.88148 | 34988 ft | 485 kts | 90° |
| 2026-05-08 02:24 | 47.10885 | -144.78265 | 34988 ft | 485 kts | 90° |
| 2026-05-08 02:25 | 47.10862 | -144.68343 | 34988 ft | 485 kts | 90° |
| 2026-05-08 02:25 | 47.10830 | -144.58462 | 34988 ft | 485 kts | 90° |
| 2026-05-08 02:26 | 47.10790 | -144.48584 | 34989 ft | 485 kts | 90° |
| 2026-05-08 02:26 | 47.10742 | -144.38727 | 34989 ft | 485 kts | 90° |
| 2026-05-08 02:27 | 47.10685 | -144.28850 | 34988 ft | 485 kts | 91° |
| 2026-05-08 02:27 | 47.10620 | -144.18985 | 34988 ft | 485 kts | 91° |
| 2026-05-08 02:28 | 47.10545 | -144.09079 | 34988 ft | 485 kts | 91° |
| 2026-05-08 02:28 | 47.10463 | -143.99191 | 34988 ft | 485 kts | 91° |
| 2026-05-08 02:29 | 47.10372 | -143.89339 | 34988 ft | 485 kts | 91° |
| 2026-05-08 02:29 | 47.10273 | -143.79471 | 34988 ft | 485 kts | 91° |
| 2026-05-08 02:30 | 47.10165 | -143.69600 | 34988 ft | 485 kts | 91° |
| 2026-05-08 02:30 | 47.10049 | -143.59703 | 34988 ft | 485 kts | 91° |
| 2026-05-08 02:31 | 47.09924 | -143.49783 | 34989 ft | 485 kts | 91° |
| 2026-05-08 02:31 | 47.09791 | -143.39969 | 34989 ft | 485 kts | 91° |
| 2026-05-08 02:32 | 47.09649 | -143.30032 | 34988 ft | 485 kts | 91° |
| 2026-05-08 02:32 | 47.09498 | -143.20158 | 34988 ft | 485 kts | 91° |
| 2026-05-08 02:33 | 47.09340 | -143.10297 | 34988 ft | 485 kts | 91° |
| 2026-05-08 02:33 | 47.09172 | -143.00447 | 34988 ft | 485 kts | 91° |
| 2026-05-08 02:34 | 47.08997 | -142.90565 | 34988 ft | 485 kts | 91° |
| 2026-05-08 02:34 | 47.08812 | -142.80681 | 34988 ft | 485 kts | 91° |
| 2026-05-08 02:35 | 47.08619 | -142.70784 | 34988 ft | 485 kts | 91° |
| 2026-05-08 02:35 | 47.08419 | -142.60959 | 34988 ft | 485 kts | 91° |
| 2026-05-08 02:36 | 47.08208 | -142.51038 | 34989 ft | 485 kts | 91° |
| 2026-05-08 02:36 | 47.07991 | -142.41202 | 34989 ft | 485 kts | 91° |
| 2026-05-08 02:37 | 47.07763 | -142.31310 | 34988 ft | 485 kts | 92° |
| 2026-05-08 02:37 | 47.07529 | -142.21452 | 34988 ft | 485 kts | 92° |
| 2026-05-08 02:38 | 47.07285 | -142.11587 | 34988 ft | 485 kts | 92° |
| 2026-05-08 02:38 | 47.07034 | -142.01744 | 34988 ft | 485 kts | 92° |
| 2026-05-08 02:39 | 47.06773 | -141.91864 | 34988 ft | 485 kts | 92° |
| 2026-05-08 02:39 | 47.06504 | -141.82007 | 34988 ft | 485 kts | 92° |
| 2026-05-08 02:40 | 47.06226 | -141.72139 | 34988 ft | 485 kts | 92° |
| 2026-05-08 02:40 | 47.05941 | -141.62282 | 34988 ft | 485 kts | 92° |
| 2026-05-08 02:41 | 47.05645 | -141.52387 | 34989 ft | 485 kts | 92° |
| 2026-05-08 02:41 | 47.05342 | -141.42520 | 34989 ft | 485 kts | 92° |
| 2026-05-08 02:42 | 47.05031 | -141.32667 | 34989 ft | 485 kts | 93° |
| 2026-05-08 02:42 | 47.04710 | -141.22768 | 34988 ft | 485 kts | 93° |
| 2026-05-08 02:43 | 47.04382 | -141.12936 | 34988 ft | 485 kts | 93° |
| 2026-05-08 02:43 | 47.04047 | -141.03108 | 34988 ft | 485 kts | 93° |
| 2026-05-08 02:44 | 47.03699 | -140.93210 | 34988 ft | 485 kts | 93° |
| 2026-05-08 02:44 | 47.03345 | -140.83353 | 34988 ft | 485 kts | 93° |
| 2026-05-08 02:45 | 47.02983 | -140.73520 | 34988 ft | 485 kts | 93° |
| 2026-05-08 02:45 | 47.02613 | -140.63675 | 34988 ft | 485 kts | 93° |
| 2026-05-08 02:46 | 47.02231 | -140.53787 | 34989 ft | 485 kts | 93° |
| 2026-05-08 02:46 | 47.01844 | -140.43973 | 34989 ft | 485 kts | 93° |
| 2026-05-08 02:47 | 47.01446 | -140.34102 | 34989 ft | 485 kts | 94° |
| 2026-05-08 02:47 | 47.01038 | -140.24223 | 34988 ft | 486 kts | 94° |
| 2026-05-08 02:48 | 47.00624 | -140.14438 | 34988 ft | 486 kts | 94° |
| 2026-05-08 02:48 | 47.00208 | -140.04530 | 34987 ft | 486 kts | 92° |